<?xml version="1.0" encoding="UTF-8" standalone="no" ?>
<gpx xmlns="http://www.topografix.com/GPX/1/1" xmlns:xsi="http://www.w3.org/2001/XMLSchema-instance" xsi:schemaLocation="http://www.topografix.com/GPX/1/1 http://www.topografix.com/GPX/1/1/gpx.xsd" version="1.1" creator="VisuGPX - https://www.visugpx.com">
  <metadata>
    <name>angecourt sedan deux fois</name>
  </metadata>
  <trk>
    <name><![CDATA[Tracé actuel: 21 JUIN 2019 08:30]]></name>
    <trkseg>
      <trkpt lat="49.63458" lon="4.98037">
        <ele>181.83</ele>
        <time>2019-06-21T06:30:30Z</time>
      </trkpt>
      <trkpt lat="49.63445" lon="4.98041">
        <ele>183.75</ele>
        <time>2019-06-21T06:30:42Z</time>
      </trkpt>
      <trkpt lat="49.63434" lon="4.9803">
        <ele>183.27</ele>
        <time>2019-06-21T06:30:57Z</time>
      </trkpt>
      <trkpt lat="49.6342" lon="4.98018">
        <ele>188.08</ele>
        <time>2019-06-21T06:31:16Z</time>
      </trkpt>
      <trkpt lat="49.63416" lon="4.98013">
        <ele>190</ele>
        <time>2019-06-21T06:31:22Z</time>
      </trkpt>
      <trkpt lat="49.63412" lon="4.98001">
        <ele>193.36</ele>
        <time>2019-06-21T06:31:33Z</time>
      </trkpt>
      <trkpt lat="49.63408" lon="4.97991">
        <ele>195.77</ele>
        <time>2019-06-21T06:31:40Z</time>
      </trkpt>
      <trkpt lat="49.63397" lon="4.97975">
        <ele>200.09</ele>
        <time>2019-06-21T06:31:57Z</time>
      </trkpt>
      <trkpt lat="49.63391" lon="4.97968">
        <ele>200.09</ele>
        <time>2019-06-21T06:32:08Z</time>
      </trkpt>
      <trkpt lat="49.63395" lon="4.97939">
        <ele>191.44</ele>
        <time>2019-06-21T06:32:23Z</time>
      </trkpt>
      <trkpt lat="49.63396" lon="4.97935">
        <ele>189.04</ele>
        <time>2019-06-21T06:32:28Z</time>
      </trkpt>
      <trkpt lat="49.63399" lon="4.97933">
        <ele>188.08</ele>
        <time>2019-06-21T06:32:31Z</time>
      </trkpt>
      <trkpt lat="49.63411" lon="4.9792">
        <ele>185.67</ele>
        <time>2019-06-21T06:32:47Z</time>
      </trkpt>
      <trkpt lat="49.63421" lon="4.97912">
        <ele>184.71</ele>
        <time>2019-06-21T06:33:01Z</time>
      </trkpt>
      <trkpt lat="49.6343" lon="4.97908">
        <ele>183.27</ele>
        <time>2019-06-21T06:33:13Z</time>
      </trkpt>
      <trkpt lat="49.63448" lon="4.97891">
        <ele>179.9</ele>
        <time>2019-06-21T06:33:30Z</time>
      </trkpt>
      <trkpt lat="49.63461" lon="4.97877">
        <ele>177.98</ele>
        <time>2019-06-21T06:33:45Z</time>
      </trkpt>
      <trkpt lat="49.63475" lon="4.97861">
        <ele>177.02</ele>
        <time>2019-06-21T06:33:59Z</time>
      </trkpt>
      <trkpt lat="49.63484" lon="4.97847">
        <ele>176.54</ele>
        <time>2019-06-21T06:34:14Z</time>
      </trkpt>
      <trkpt lat="49.63495" lon="4.97827">
        <ele>175.58</ele>
        <time>2019-06-21T06:34:29Z</time>
      </trkpt>
      <trkpt lat="49.63509" lon="4.97817">
        <ele>174.14</ele>
        <time>2019-06-21T06:34:44Z</time>
      </trkpt>
      <trkpt lat="49.63516" lon="4.97804">
        <ele>171.25</ele>
        <time>2019-06-21T06:35:02Z</time>
      </trkpt>
      <trkpt lat="49.63538" lon="4.97779">
        <ele>174.14</ele>
        <time>2019-06-21T06:35:20Z</time>
      </trkpt>
      <trkpt lat="49.6355" lon="4.97749">
        <ele>173.66</ele>
        <time>2019-06-21T06:35:38Z</time>
      </trkpt>
      <trkpt lat="49.63559" lon="4.97726">
        <ele>173.66</ele>
        <time>2019-06-21T06:35:55Z</time>
      </trkpt>
      <trkpt lat="49.63565" lon="4.97703">
        <ele>174.62</ele>
        <time>2019-06-21T06:36:09Z</time>
      </trkpt>
      <trkpt lat="49.63566" lon="4.97702">
        <ele>174.62</ele>
        <time>2019-06-21T06:36:10Z</time>
      </trkpt>
      <trkpt lat="49.63577" lon="4.97674">
        <ele>175.58</ele>
        <time>2019-06-21T06:36:26Z</time>
      </trkpt>
      <trkpt lat="49.63588" lon="4.97677">
        <ele>176.54</ele>
        <time>2019-06-21T06:36:35Z</time>
      </trkpt>
      <trkpt lat="49.63605" lon="4.97678">
        <ele>177.98</ele>
        <time>2019-06-21T06:36:52Z</time>
      </trkpt>
      <trkpt lat="49.63612" lon="4.97681">
        <ele>177.98</ele>
        <time>2019-06-21T06:37:00Z</time>
      </trkpt>
      <trkpt lat="49.63626" lon="4.97693">
        <ele>176.54</ele>
        <time>2019-06-21T06:37:16Z</time>
      </trkpt>
      <trkpt lat="49.63644" lon="4.97708">
        <ele>176.54</ele>
        <time>2019-06-21T06:37:34Z</time>
      </trkpt>
      <trkpt lat="49.63659" lon="4.97718">
        <ele>175.58</ele>
        <time>2019-06-21T06:37:49Z</time>
      </trkpt>
      <trkpt lat="49.63677" lon="4.97732">
        <ele>177.5</ele>
        <time>2019-06-21T06:38:06Z</time>
      </trkpt>
      <trkpt lat="49.63683" lon="4.97736">
        <ele>178.94</ele>
        <time>2019-06-21T06:38:14Z</time>
      </trkpt>
      <trkpt lat="49.63695" lon="4.97747">
        <ele>177.5</ele>
        <time>2019-06-21T06:38:28Z</time>
      </trkpt>
      <trkpt lat="49.63711" lon="4.97762">
        <ele>177.02</ele>
        <time>2019-06-21T06:38:42Z</time>
      </trkpt>
      <trkpt lat="49.63729" lon="4.97781">
        <ele>178.46</ele>
        <time>2019-06-21T06:39:00Z</time>
      </trkpt>
      <trkpt lat="49.63746" lon="4.97794">
        <ele>175.58</ele>
        <time>2019-06-21T06:39:17Z</time>
      </trkpt>
      <trkpt lat="49.63764" lon="4.9781">
        <ele>171.73</ele>
        <time>2019-06-21T06:39:33Z</time>
      </trkpt>
      <trkpt lat="49.63779" lon="4.97823">
        <ele>170.77</ele>
        <time>2019-06-21T06:39:49Z</time>
      </trkpt>
      <trkpt lat="49.63788" lon="4.97832">
        <ele>170.29</ele>
        <time>2019-06-21T06:39:59Z</time>
      </trkpt>
      <trkpt lat="49.63803" lon="4.97844">
        <ele>169.33</ele>
        <time>2019-06-21T06:40:16Z</time>
      </trkpt>
      <trkpt lat="49.63819" lon="4.9786">
        <ele>166.93</ele>
        <time>2019-06-21T06:40:31Z</time>
      </trkpt>
      <trkpt lat="49.63835" lon="4.97876">
        <ele>167.89</ele>
        <time>2019-06-21T06:40:47Z</time>
      </trkpt>
      <trkpt lat="49.63848" lon="4.97891">
        <ele>165.96</ele>
        <time>2019-06-21T06:41:02Z</time>
      </trkpt>
      <trkpt lat="49.63865" lon="4.9791">
        <ele>167.89</ele>
        <time>2019-06-21T06:41:20Z</time>
      </trkpt>
      <trkpt lat="49.63876" lon="4.97919">
        <ele>166.93</ele>
        <time>2019-06-21T06:41:30Z</time>
      </trkpt>
      <trkpt lat="49.63889" lon="4.97929">
        <ele>167.41</ele>
        <time>2019-06-21T06:41:46Z</time>
      </trkpt>
      <trkpt lat="49.6389" lon="4.9793">
        <ele>167.41</ele>
        <time>2019-06-21T06:41:47Z</time>
      </trkpt>
      <trkpt lat="49.63904" lon="4.97942">
        <ele>168.85</ele>
        <time>2019-06-21T06:42:02Z</time>
      </trkpt>
      <trkpt lat="49.63913" lon="4.9795">
        <ele>167.41</ele>
        <time>2019-06-21T06:42:11Z</time>
      </trkpt>
      <trkpt lat="49.63932" lon="4.97964">
        <ele>169.33</ele>
        <time>2019-06-21T06:42:30Z</time>
      </trkpt>
      <trkpt lat="49.63946" lon="4.97978">
        <ele>169.33</ele>
        <time>2019-06-21T06:42:47Z</time>
      </trkpt>
      <trkpt lat="49.63961" lon="4.97994">
        <ele>168.37</ele>
        <time>2019-06-21T06:43:04Z</time>
      </trkpt>
      <trkpt lat="49.63976" lon="4.98007">
        <ele>168.37</ele>
        <time>2019-06-21T06:43:21Z</time>
      </trkpt>
      <trkpt lat="49.63997" lon="4.98026">
        <ele>167.89</ele>
        <time>2019-06-21T06:43:40Z</time>
      </trkpt>
      <trkpt lat="49.64013" lon="4.98044">
        <ele>166.45</ele>
        <time>2019-06-21T06:43:58Z</time>
      </trkpt>
      <trkpt lat="49.64031" lon="4.98061">
        <ele>168.85</ele>
        <time>2019-06-21T06:44:16Z</time>
      </trkpt>
      <trkpt lat="49.64045" lon="4.98074">
        <ele>171.25</ele>
        <time>2019-06-21T06:44:32Z</time>
      </trkpt>
      <trkpt lat="49.64064" lon="4.98091">
        <ele>169.81</ele>
        <time>2019-06-21T06:44:50Z</time>
      </trkpt>
      <trkpt lat="49.64065" lon="4.98092">
        <ele>169.81</ele>
        <time>2019-06-21T06:44:51Z</time>
      </trkpt>
      <trkpt lat="49.64081" lon="4.98108">
        <ele>170.77</ele>
        <time>2019-06-21T06:45:10Z</time>
      </trkpt>
      <trkpt lat="49.64101" lon="4.98123">
        <ele>170.29</ele>
        <time>2019-06-21T06:45:28Z</time>
      </trkpt>
      <trkpt lat="49.64105" lon="4.98128">
        <ele>169.81</ele>
        <time>2019-06-21T06:45:31Z</time>
      </trkpt>
      <trkpt lat="49.64124" lon="4.98149">
        <ele>167.41</ele>
        <time>2019-06-21T06:45:48Z</time>
      </trkpt>
      <trkpt lat="49.64134" lon="4.98161">
        <ele>166.45</ele>
        <time>2019-06-21T06:46:00Z</time>
      </trkpt>
      <trkpt lat="49.64154" lon="4.98182">
        <ele>165.48</ele>
        <time>2019-06-21T06:46:18Z</time>
      </trkpt>
      <trkpt lat="49.6416" lon="4.98192">
        <ele>165</ele>
        <time>2019-06-21T06:46:26Z</time>
      </trkpt>
      <trkpt lat="49.64179" lon="4.98213">
        <ele>167.41</ele>
        <time>2019-06-21T06:46:46Z</time>
      </trkpt>
      <trkpt lat="49.64198" lon="4.98221">
        <ele>165.96</ele>
        <time>2019-06-21T06:47:02Z</time>
      </trkpt>
      <trkpt lat="49.64213" lon="4.98232">
        <ele>163.56</ele>
        <time>2019-06-21T06:47:18Z</time>
      </trkpt>
      <trkpt lat="49.64229" lon="4.98244">
        <ele>162.12</ele>
        <time>2019-06-21T06:47:35Z</time>
      </trkpt>
      <trkpt lat="49.64245" lon="4.98258">
        <ele>161.16</ele>
        <time>2019-06-21T06:47:52Z</time>
      </trkpt>
      <trkpt lat="49.64261" lon="4.98271">
        <ele>161.64</ele>
        <time>2019-06-21T06:48:08Z</time>
      </trkpt>
      <trkpt lat="49.64275" lon="4.98283">
        <ele>163.56</ele>
        <time>2019-06-21T06:48:24Z</time>
      </trkpt>
      <trkpt lat="49.6429" lon="4.98295">
        <ele>166.93</ele>
        <time>2019-06-21T06:48:39Z</time>
      </trkpt>
      <trkpt lat="49.64308" lon="4.98314">
        <ele>169.81</ele>
        <time>2019-06-21T06:48:58Z</time>
      </trkpt>
      <trkpt lat="49.64323" lon="4.98325">
        <ele>170.29</ele>
        <time>2019-06-21T06:49:15Z</time>
      </trkpt>
      <trkpt lat="49.64344" lon="4.98337">
        <ele>167.89</ele>
        <time>2019-06-21T06:49:31Z</time>
      </trkpt>
      <trkpt lat="49.6435" lon="4.98343">
        <ele>166.45</ele>
        <time>2019-06-21T06:49:37Z</time>
      </trkpt>
      <trkpt lat="49.64354" lon="4.98347">
        <ele>166.45</ele>
        <time>2019-06-21T06:49:41Z</time>
      </trkpt>
      <trkpt lat="49.64371" lon="4.98361">
        <ele>166.45</ele>
        <time>2019-06-21T06:49:58Z</time>
      </trkpt>
      <trkpt lat="49.64377" lon="4.98368">
        <ele>166.93</ele>
        <time>2019-06-21T06:50:04Z</time>
      </trkpt>
      <trkpt lat="49.64394" lon="4.98382">
        <ele>169.33</ele>
        <time>2019-06-21T06:50:21Z</time>
      </trkpt>
      <trkpt lat="49.64399" lon="4.98386">
        <ele>169.81</ele>
        <time>2019-06-21T06:50:27Z</time>
      </trkpt>
      <trkpt lat="49.64419" lon="4.984">
        <ele>170.77</ele>
        <time>2019-06-21T06:50:45Z</time>
      </trkpt>
      <trkpt lat="49.64428" lon="4.98402">
        <ele>170.29</ele>
        <time>2019-06-21T06:50:55Z</time>
      </trkpt>
      <trkpt lat="49.64449" lon="4.98418">
        <ele>169.81</ele>
        <time>2019-06-21T06:51:15Z</time>
      </trkpt>
      <trkpt lat="49.64465" lon="4.98428">
        <ele>171.73</ele>
        <time>2019-06-21T06:51:32Z</time>
      </trkpt>
      <trkpt lat="49.64484" lon="4.98444">
        <ele>172.69</ele>
        <time>2019-06-21T06:51:48Z</time>
      </trkpt>
      <trkpt lat="49.64501" lon="4.98453">
        <ele>172.21</ele>
        <time>2019-06-21T06:52:05Z</time>
      </trkpt>
      <trkpt lat="49.6452" lon="4.98467">
        <ele>173.17</ele>
        <time>2019-06-21T06:52:23Z</time>
      </trkpt>
      <trkpt lat="49.64543" lon="4.98476">
        <ele>172.69</ele>
        <time>2019-06-21T06:52:44Z</time>
      </trkpt>
      <trkpt lat="49.64565" lon="4.98486">
        <ele>169.81</ele>
        <time>2019-06-21T06:53:03Z</time>
      </trkpt>
      <trkpt lat="49.64587" lon="4.98495">
        <ele>168.85</ele>
        <time>2019-06-21T06:53:23Z</time>
      </trkpt>
      <trkpt lat="49.64591" lon="4.98495">
        <ele>168.85</ele>
        <time>2019-06-21T06:53:28Z</time>
      </trkpt>
      <trkpt lat="49.64609" lon="4.98503">
        <ele>169.81</ele>
        <time>2019-06-21T06:53:46Z</time>
      </trkpt>
      <trkpt lat="49.64612" lon="4.98505">
        <ele>169.33</ele>
        <time>2019-06-21T06:53:49Z</time>
      </trkpt>
      <trkpt lat="49.64632" lon="4.98519">
        <ele>167.41</ele>
        <time>2019-06-21T06:54:08Z</time>
      </trkpt>
      <trkpt lat="49.64654" lon="4.9853">
        <ele>167.89</ele>
        <time>2019-06-21T06:54:28Z</time>
      </trkpt>
      <trkpt lat="49.64674" lon="4.98542">
        <ele>169.33</ele>
        <time>2019-06-21T06:54:48Z</time>
      </trkpt>
      <trkpt lat="49.64684" lon="4.98545">
        <ele>168.85</ele>
        <time>2019-06-21T06:54:57Z</time>
      </trkpt>
      <trkpt lat="49.64705" lon="4.98555">
        <ele>167.89</ele>
        <time>2019-06-21T06:55:15Z</time>
      </trkpt>
      <trkpt lat="49.64724" lon="4.98569">
        <ele>166.45</ele>
        <time>2019-06-21T06:55:34Z</time>
      </trkpt>
      <trkpt lat="49.64734" lon="4.98577">
        <ele>164.04</ele>
        <time>2019-06-21T06:55:45Z</time>
      </trkpt>
      <trkpt lat="49.64756" lon="4.9859">
        <ele>163.08</ele>
        <time>2019-06-21T06:56:05Z</time>
      </trkpt>
      <trkpt lat="49.64772" lon="4.986">
        <ele>162.12</ele>
        <time>2019-06-21T06:56:21Z</time>
      </trkpt>
      <trkpt lat="49.64785" lon="4.98606">
        <ele>161.16</ele>
        <time>2019-06-21T06:56:34Z</time>
      </trkpt>
      <trkpt lat="49.64793" lon="4.98611">
        <ele>161.64</ele>
        <time>2019-06-21T06:56:41Z</time>
      </trkpt>
      <trkpt lat="49.64813" lon="4.98616">
        <ele>160.2</ele>
        <time>2019-06-21T06:56:58Z</time>
      </trkpt>
      <trkpt lat="49.64814" lon="4.98616">
        <ele>160.2</ele>
        <time>2019-06-21T06:56:59Z</time>
      </trkpt>
      <trkpt lat="49.64835" lon="4.98622">
        <ele>160.68</ele>
        <time>2019-06-21T06:57:16Z</time>
      </trkpt>
      <trkpt lat="49.64846" lon="4.98628">
        <ele>160.2</ele>
        <time>2019-06-21T06:57:27Z</time>
      </trkpt>
      <trkpt lat="49.64869" lon="4.98643">
        <ele>159.72</ele>
        <time>2019-06-21T06:57:46Z</time>
      </trkpt>
      <trkpt lat="49.64876" lon="4.98649">
        <ele>158.75</ele>
        <time>2019-06-21T06:57:55Z</time>
      </trkpt>
      <trkpt lat="49.64887" lon="4.98659">
        <ele>158.27</ele>
        <time>2019-06-21T06:58:05Z</time>
      </trkpt>
      <trkpt lat="49.64899" lon="4.98667">
        <ele>158.27</ele>
        <time>2019-06-21T06:58:17Z</time>
      </trkpt>
      <trkpt lat="49.64906" lon="4.98673">
        <ele>157.79</ele>
        <time>2019-06-21T06:58:23Z</time>
      </trkpt>
      <trkpt lat="49.64924" lon="4.98681">
        <ele>158.75</ele>
        <time>2019-06-21T06:58:38Z</time>
      </trkpt>
      <trkpt lat="49.64933" lon="4.98684">
        <ele>157.79</ele>
        <time>2019-06-21T06:58:48Z</time>
      </trkpt>
      <trkpt lat="49.64955" lon="4.98699">
        <ele>158.27</ele>
        <time>2019-06-21T06:59:07Z</time>
      </trkpt>
      <trkpt lat="49.64963" lon="4.98706">
        <ele>157.79</ele>
        <time>2019-06-21T06:59:16Z</time>
      </trkpt>
      <trkpt lat="49.64982" lon="4.98726">
        <ele>157.31</ele>
        <time>2019-06-21T06:59:34Z</time>
      </trkpt>
      <trkpt lat="49.64993" lon="4.98735">
        <ele>155.39</ele>
        <time>2019-06-21T06:59:46Z</time>
      </trkpt>
      <trkpt lat="49.65016" lon="4.98754">
        <ele>154.43</ele>
        <time>2019-06-21T07:00:08Z</time>
      </trkpt>
      <trkpt lat="49.65019" lon="4.98759">
        <ele>153.95</ele>
        <time>2019-06-21T07:00:12Z</time>
      </trkpt>
      <trkpt lat="49.6504" lon="4.98778">
        <ele>153.95</ele>
        <time>2019-06-21T07:00:32Z</time>
      </trkpt>
      <trkpt lat="49.65044" lon="4.98783">
        <ele>153.47</ele>
        <time>2019-06-21T07:00:37Z</time>
      </trkpt>
      <trkpt lat="49.65064" lon="4.98801">
        <ele>152.99</ele>
        <time>2019-06-21T07:00:57Z</time>
      </trkpt>
      <trkpt lat="49.65065" lon="4.98803">
        <ele>152.99</ele>
        <time>2019-06-21T07:00:59Z</time>
      </trkpt>
      <trkpt lat="49.65084" lon="4.9882">
        <ele>152.99</ele>
        <time>2019-06-21T07:01:18Z</time>
      </trkpt>
      <trkpt lat="49.65091" lon="4.98828">
        <ele>152.03</ele>
        <time>2019-06-21T07:01:25Z</time>
      </trkpt>
      <trkpt lat="49.65106" lon="4.98847">
        <ele>149.62</ele>
        <time>2019-06-21T07:01:42Z</time>
      </trkpt>
      <trkpt lat="49.65122" lon="4.98865">
        <ele>148.66</ele>
        <time>2019-06-21T07:01:59Z</time>
      </trkpt>
      <trkpt lat="49.65136" lon="4.98884">
        <ele>147.22</ele>
        <time>2019-06-21T07:02:15Z</time>
      </trkpt>
      <trkpt lat="49.65152" lon="4.98902">
        <ele>144.82</ele>
        <time>2019-06-21T07:02:33Z</time>
      </trkpt>
      <trkpt lat="49.65168" lon="4.9892">
        <ele>141.93</ele>
        <time>2019-06-21T07:02:52Z</time>
      </trkpt>
      <trkpt lat="49.65187" lon="4.98939">
        <ele>141.45</ele>
        <time>2019-06-21T07:03:12Z</time>
      </trkpt>
      <trkpt lat="49.65207" lon="4.98951">
        <ele>144.82</ele>
        <time>2019-06-21T07:03:30Z</time>
      </trkpt>
      <trkpt lat="49.65228" lon="4.98964">
        <ele>147.7</ele>
        <time>2019-06-21T07:03:49Z</time>
      </trkpt>
      <trkpt lat="49.65247" lon="4.98979">
        <ele>149.62</ele>
        <time>2019-06-21T07:04:08Z</time>
      </trkpt>
      <trkpt lat="49.65265" lon="4.9899">
        <ele>151.06</ele>
        <time>2019-06-21T07:04:25Z</time>
      </trkpt>
      <trkpt lat="49.65276" lon="4.99001">
        <ele>151.54</ele>
        <time>2019-06-21T07:04:35Z</time>
      </trkpt>
      <trkpt lat="49.65295" lon="4.99014">
        <ele>153.47</ele>
        <time>2019-06-21T07:04:52Z</time>
      </trkpt>
      <trkpt lat="49.65297" lon="4.99016">
        <ele>153.95</ele>
        <time>2019-06-21T07:04:54Z</time>
      </trkpt>
      <trkpt lat="49.65316" lon="4.99038">
        <ele>154.43</ele>
        <time>2019-06-21T07:05:13Z</time>
      </trkpt>
      <trkpt lat="49.65322" lon="4.99049">
        <ele>155.87</ele>
        <time>2019-06-21T07:05:24Z</time>
      </trkpt>
      <trkpt lat="49.65331" lon="4.99081">
        <ele>155.87</ele>
        <time>2019-06-21T07:05:43Z</time>
      </trkpt>
      <trkpt lat="49.65342" lon="4.99111">
        <ele>157.31</ele>
        <time>2019-06-21T07:06:03Z</time>
      </trkpt>
      <trkpt lat="49.65351" lon="4.99137">
        <ele>157.79</ele>
        <time>2019-06-21T07:06:21Z</time>
      </trkpt>
      <trkpt lat="49.65367" lon="4.99163">
        <ele>157.31</ele>
        <time>2019-06-21T07:06:40Z</time>
      </trkpt>
      <trkpt lat="49.6537" lon="4.99177">
        <ele>157.79</ele>
        <time>2019-06-21T07:06:48Z</time>
      </trkpt>
      <trkpt lat="49.65366" lon="4.99188">
        <ele>158.27</ele>
        <time>2019-06-21T07:06:56Z</time>
      </trkpt>
      <trkpt lat="49.65376" lon="4.99194">
        <ele>156.35</ele>
        <time>2019-06-21T07:07:05Z</time>
      </trkpt>
      <trkpt lat="49.65381" lon="4.99191">
        <ele>154.43</ele>
        <time>2019-06-21T07:07:11Z</time>
      </trkpt>
      <trkpt lat="49.65398" lon="4.99207">
        <ele>154.91</ele>
        <time>2019-06-21T07:07:28Z</time>
      </trkpt>
      <trkpt lat="49.65411" lon="4.9922">
        <ele>156.35</ele>
        <time>2019-06-21T07:07:42Z</time>
      </trkpt>
      <trkpt lat="49.65429" lon="4.99248">
        <ele>158.27</ele>
        <time>2019-06-21T07:08:02Z</time>
      </trkpt>
      <trkpt lat="49.65436" lon="4.99253">
        <ele>158.75</ele>
        <time>2019-06-21T07:08:12Z</time>
      </trkpt>
      <trkpt lat="49.65448" lon="4.99271">
        <ele>157.31</ele>
        <time>2019-06-21T07:08:27Z</time>
      </trkpt>
      <trkpt lat="49.65456" lon="4.99281">
        <ele>156.35</ele>
        <time>2019-06-21T07:08:36Z</time>
      </trkpt>
      <trkpt lat="49.65473" lon="4.99266">
        <ele>158.75</ele>
        <time>2019-06-21T07:08:54Z</time>
      </trkpt>
      <trkpt lat="49.65484" lon="4.99241">
        <ele>162.6</ele>
        <time>2019-06-21T07:09:11Z</time>
      </trkpt>
      <trkpt lat="49.65491" lon="4.99215">
        <ele>163.56</ele>
        <time>2019-06-21T07:09:28Z</time>
      </trkpt>
      <trkpt lat="49.65501" lon="4.99202">
        <ele>164.52</ele>
        <time>2019-06-21T07:09:45Z</time>
      </trkpt>
      <trkpt lat="49.65503" lon="4.99203">
        <ele>164.52</ele>
        <time>2019-06-21T07:09:47Z</time>
      </trkpt>
      <trkpt lat="49.65519" lon="4.9921">
        <ele>164.52</ele>
        <time>2019-06-21T07:10:03Z</time>
      </trkpt>
      <trkpt lat="49.65525" lon="4.99214">
        <ele>164.04</ele>
        <time>2019-06-21T07:10:10Z</time>
      </trkpt>
      <trkpt lat="49.65544" lon="4.99229">
        <ele>165.96</ele>
        <time>2019-06-21T07:10:27Z</time>
      </trkpt>
      <trkpt lat="49.65548" lon="4.99233">
        <ele>165.96</ele>
        <time>2019-06-21T07:10:32Z</time>
      </trkpt>
      <trkpt lat="49.65562" lon="4.99246">
        <ele>165.48</ele>
        <time>2019-06-21T07:10:48Z</time>
      </trkpt>
      <trkpt lat="49.65579" lon="4.99224">
        <ele>166.45</ele>
        <time>2019-06-21T07:11:05Z</time>
      </trkpt>
      <trkpt lat="49.65595" lon="4.99202">
        <ele>163.56</ele>
        <time>2019-06-21T07:11:23Z</time>
      </trkpt>
      <trkpt lat="49.6561" lon="4.99176">
        <ele>162.12</ele>
        <time>2019-06-21T07:11:43Z</time>
      </trkpt>
      <trkpt lat="49.65624" lon="4.99151">
        <ele>161.16</ele>
        <time>2019-06-21T07:12:02Z</time>
      </trkpt>
      <trkpt lat="49.65638" lon="4.99127">
        <ele>162.6</ele>
        <time>2019-06-21T07:12:20Z</time>
      </trkpt>
      <trkpt lat="49.65653" lon="4.99102">
        <ele>161.64</ele>
        <time>2019-06-21T07:12:39Z</time>
      </trkpt>
      <trkpt lat="49.6567" lon="4.99073">
        <ele>160.2</ele>
        <time>2019-06-21T07:13:01Z</time>
      </trkpt>
      <trkpt lat="49.65683" lon="4.9905">
        <ele>160.2</ele>
        <time>2019-06-21T07:13:18Z</time>
      </trkpt>
      <trkpt lat="49.65697" lon="4.99027">
        <ele>160.2</ele>
        <time>2019-06-21T07:13:36Z</time>
      </trkpt>
      <trkpt lat="49.65709" lon="4.99006">
        <ele>160.2</ele>
        <time>2019-06-21T07:13:52Z</time>
      </trkpt>
      <trkpt lat="49.65723" lon="4.98982">
        <ele>160.68</ele>
        <time>2019-06-21T07:14:11Z</time>
      </trkpt>
      <trkpt lat="49.65737" lon="4.98957">
        <ele>159.72</ele>
        <time>2019-06-21T07:14:30Z</time>
      </trkpt>
      <trkpt lat="49.65751" lon="4.9893">
        <ele>160.68</ele>
        <time>2019-06-21T07:14:50Z</time>
      </trkpt>
      <trkpt lat="49.65765" lon="4.98905">
        <ele>162.12</ele>
        <time>2019-06-21T07:15:09Z</time>
      </trkpt>
      <trkpt lat="49.65777" lon="4.98883">
        <ele>162.6</ele>
        <time>2019-06-21T07:15:25Z</time>
      </trkpt>
      <trkpt lat="49.65789" lon="4.98859">
        <ele>162.6</ele>
        <time>2019-06-21T07:15:43Z</time>
      </trkpt>
      <trkpt lat="49.65802" lon="4.98836">
        <ele>164.04</ele>
        <time>2019-06-21T07:16:00Z</time>
      </trkpt>
      <trkpt lat="49.65817" lon="4.98808">
        <ele>163.56</ele>
        <time>2019-06-21T07:16:20Z</time>
      </trkpt>
      <trkpt lat="49.65828" lon="4.98786">
        <ele>164.52</ele>
        <time>2019-06-21T07:16:37Z</time>
      </trkpt>
      <trkpt lat="49.6584" lon="4.98764">
        <ele>164.52</ele>
        <time>2019-06-21T07:16:54Z</time>
      </trkpt>
      <trkpt lat="49.65853" lon="4.9874">
        <ele>163.56</ele>
        <time>2019-06-21T07:17:11Z</time>
      </trkpt>
      <trkpt lat="49.65866" lon="4.98714">
        <ele>162.12</ele>
        <time>2019-06-21T07:17:30Z</time>
      </trkpt>
      <trkpt lat="49.65879" lon="4.9869">
        <ele>161.64</ele>
        <time>2019-06-21T07:17:48Z</time>
      </trkpt>
      <trkpt lat="49.65891" lon="4.98669">
        <ele>162.6</ele>
        <time>2019-06-21T07:18:05Z</time>
      </trkpt>
      <trkpt lat="49.65902" lon="4.98647">
        <ele>163.08</ele>
        <time>2019-06-21T07:18:21Z</time>
      </trkpt>
      <trkpt lat="49.65915" lon="4.98621">
        <ele>162.12</ele>
        <time>2019-06-21T07:18:38Z</time>
      </trkpt>
      <trkpt lat="49.65926" lon="4.98598">
        <ele>160.2</ele>
        <time>2019-06-21T07:18:55Z</time>
      </trkpt>
      <trkpt lat="49.65937" lon="4.98573">
        <ele>160.68</ele>
        <time>2019-06-21T07:19:11Z</time>
      </trkpt>
      <trkpt lat="49.65948" lon="4.98547">
        <ele>161.64</ele>
        <time>2019-06-21T07:19:28Z</time>
      </trkpt>
      <trkpt lat="49.65959" lon="4.98522">
        <ele>163.08</ele>
        <time>2019-06-21T07:19:45Z</time>
      </trkpt>
      <trkpt lat="49.6597" lon="4.98501">
        <ele>166.45</ele>
        <time>2019-06-21T07:20:02Z</time>
      </trkpt>
      <trkpt lat="49.6598" lon="4.98479">
        <ele>163.56</ele>
        <time>2019-06-21T07:20:17Z</time>
      </trkpt>
      <trkpt lat="49.65997" lon="4.98453">
        <ele>161.64</ele>
        <time>2019-06-21T07:20:38Z</time>
      </trkpt>
      <trkpt lat="49.66013" lon="4.98426">
        <ele>156.83</ele>
        <time>2019-06-21T07:20:57Z</time>
      </trkpt>
      <trkpt lat="49.66028" lon="4.984">
        <ele>157.79</ele>
        <time>2019-06-21T07:21:17Z</time>
      </trkpt>
      <trkpt lat="49.66042" lon="4.98373">
        <ele>158.75</ele>
        <time>2019-06-21T07:21:35Z</time>
      </trkpt>
      <trkpt lat="49.6606" lon="4.98342">
        <ele>160.2</ele>
        <time>2019-06-21T07:21:57Z</time>
      </trkpt>
      <trkpt lat="49.66069" lon="4.98323">
        <ele>160.2</ele>
        <time>2019-06-21T07:22:11Z</time>
      </trkpt>
      <trkpt lat="49.66086" lon="4.98294">
        <ele>161.64</ele>
        <time>2019-06-21T07:22:31Z</time>
      </trkpt>
      <trkpt lat="49.66101" lon="4.98266">
        <ele>162.6</ele>
        <time>2019-06-21T07:22:51Z</time>
      </trkpt>
      <trkpt lat="49.66113" lon="4.9824">
        <ele>162.6</ele>
        <time>2019-06-21T07:23:10Z</time>
      </trkpt>
      <trkpt lat="49.66129" lon="4.98211">
        <ele>164.52</ele>
        <time>2019-06-21T07:23:30Z</time>
      </trkpt>
      <trkpt lat="49.66144" lon="4.98184">
        <ele>164.52</ele>
        <time>2019-06-21T07:23:49Z</time>
      </trkpt>
      <trkpt lat="49.6615" lon="4.98171">
        <ele>164.04</ele>
        <time>2019-06-21T07:23:59Z</time>
      </trkpt>
      <trkpt lat="49.66154" lon="4.98165">
        <ele>164.04</ele>
        <time>2019-06-21T07:24:04Z</time>
      </trkpt>
      <trkpt lat="49.6617" lon="4.98135">
        <ele>163.08</ele>
        <time>2019-06-21T07:24:26Z</time>
      </trkpt>
      <trkpt lat="49.66184" lon="4.98107">
        <ele>164.52</ele>
        <time>2019-06-21T07:24:45Z</time>
      </trkpt>
      <trkpt lat="49.66199" lon="4.98082">
        <ele>165.96</ele>
        <time>2019-06-21T07:25:04Z</time>
      </trkpt>
      <trkpt lat="49.66213" lon="4.98054">
        <ele>165</ele>
        <time>2019-06-21T07:25:22Z</time>
      </trkpt>
      <trkpt lat="49.66227" lon="4.9803">
        <ele>164.52</ele>
        <time>2019-06-21T07:25:41Z</time>
      </trkpt>
      <trkpt lat="49.66235" lon="4.98012">
        <ele>164.52</ele>
        <time>2019-06-21T07:25:54Z</time>
      </trkpt>
      <trkpt lat="49.66251" lon="4.97983">
        <ele>165</ele>
        <time>2019-06-21T07:26:15Z</time>
      </trkpt>
      <trkpt lat="49.66269" lon="4.97949">
        <ele>165.96</ele>
        <time>2019-06-21T07:26:40Z</time>
      </trkpt>
      <trkpt lat="49.66283" lon="4.97921">
        <ele>165.96</ele>
        <time>2019-06-21T07:26:59Z</time>
      </trkpt>
      <trkpt lat="49.66298" lon="4.97893">
        <ele>166.93</ele>
        <time>2019-06-21T07:27:18Z</time>
      </trkpt>
      <trkpt lat="49.66314" lon="4.97862">
        <ele>166.45</ele>
        <time>2019-06-21T07:27:41Z</time>
      </trkpt>
      <trkpt lat="49.66326" lon="4.97836">
        <ele>165.48</ele>
        <time>2019-06-21T07:27:59Z</time>
      </trkpt>
      <trkpt lat="49.66339" lon="4.97811">
        <ele>164.52</ele>
        <time>2019-06-21T07:28:17Z</time>
      </trkpt>
      <trkpt lat="49.66356" lon="4.9778">
        <ele>163.08</ele>
        <time>2019-06-21T07:28:38Z</time>
      </trkpt>
      <trkpt lat="49.66371" lon="4.9775">
        <ele>163.08</ele>
        <time>2019-06-21T07:28:58Z</time>
      </trkpt>
      <trkpt lat="49.66386" lon="4.9772">
        <ele>162.6</ele>
        <time>2019-06-21T07:29:20Z</time>
      </trkpt>
      <trkpt lat="49.66402" lon="4.97687">
        <ele>161.64</ele>
        <time>2019-06-21T07:29:43Z</time>
      </trkpt>
      <trkpt lat="49.66413" lon="4.97664">
        <ele>162.12</ele>
        <time>2019-06-21T07:29:59Z</time>
      </trkpt>
      <trkpt lat="49.66428" lon="4.97633">
        <ele>161.16</ele>
        <time>2019-06-21T07:30:21Z</time>
      </trkpt>
      <trkpt lat="49.66443" lon="4.97604">
        <ele>158.75</ele>
        <time>2019-06-21T07:30:40Z</time>
      </trkpt>
      <trkpt lat="49.66459" lon="4.97578">
        <ele>158.27</ele>
        <time>2019-06-21T07:31:00Z</time>
      </trkpt>
      <trkpt lat="49.66474" lon="4.97549">
        <ele>159.72</ele>
        <time>2019-06-21T07:31:22Z</time>
      </trkpt>
      <trkpt lat="49.66481" lon="4.97539">
        <ele>160.2</ele>
        <time>2019-06-21T07:31:30Z</time>
      </trkpt>
      <trkpt lat="49.66484" lon="4.97532">
        <ele>160.68</ele>
        <time>2019-06-21T07:31:36Z</time>
      </trkpt>
      <trkpt lat="49.66497" lon="4.97511">
        <ele>163.56</ele>
        <time>2019-06-21T07:31:55Z</time>
      </trkpt>
      <trkpt lat="49.66495" lon="4.9751">
        <ele>162.6</ele>
        <time>2019-06-21T07:32:14Z</time>
      </trkpt>
      <trkpt lat="49.66495" lon="4.97509">
        <ele>162.12</ele>
        <time>2019-06-21T07:32:38Z</time>
      </trkpt>
      <trkpt lat="49.66494" lon="4.97507">
        <ele>161.16</ele>
        <time>2019-06-21T07:33:00Z</time>
      </trkpt>
      <trkpt lat="49.66494" lon="4.97505">
        <ele>160.2</ele>
        <time>2019-06-21T07:33:28Z</time>
      </trkpt>
      <trkpt lat="49.66494" lon="4.97505">
        <ele>160.2</ele>
        <time>2019-06-21T07:33:50Z</time>
      </trkpt>
      <trkpt lat="49.66494" lon="4.97504">
        <ele>160.68</ele>
        <time>2019-06-21T07:34:09Z</time>
      </trkpt>
      <trkpt lat="49.66494" lon="4.97504">
        <ele>161.16</ele>
        <time>2019-06-21T07:34:32Z</time>
      </trkpt>
      <trkpt lat="49.66493" lon="4.97505">
        <ele>161.16</ele>
        <time>2019-06-21T07:34:52Z</time>
      </trkpt>
      <trkpt lat="49.66493" lon="4.97505">
        <ele>160.2</ele>
        <time>2019-06-21T07:35:15Z</time>
      </trkpt>
      <trkpt lat="49.66493" lon="4.97505">
        <ele>161.16</ele>
        <time>2019-06-21T07:35:38Z</time>
      </trkpt>
      <trkpt lat="49.66493" lon="4.97506">
        <ele>160.68</ele>
        <time>2019-06-21T07:36:04Z</time>
      </trkpt>
      <trkpt lat="49.66494" lon="4.97508">
        <ele>162.12</ele>
        <time>2019-06-21T07:36:27Z</time>
      </trkpt>
      <trkpt lat="49.66494" lon="4.97508">
        <ele>161.64</ele>
        <time>2019-06-21T07:36:45Z</time>
      </trkpt>
      <trkpt lat="49.66502" lon="4.97492">
        <ele>161.16</ele>
        <time>2019-06-21T07:36:55Z</time>
      </trkpt>
      <trkpt lat="49.66516" lon="4.9746">
        <ele>160.68</ele>
        <time>2019-06-21T07:37:16Z</time>
      </trkpt>
      <trkpt lat="49.66529" lon="4.97431">
        <ele>157.31</ele>
        <time>2019-06-21T07:37:35Z</time>
      </trkpt>
      <trkpt lat="49.66541" lon="4.97411">
        <ele>157.31</ele>
        <time>2019-06-21T07:37:51Z</time>
      </trkpt>
      <trkpt lat="49.66552" lon="4.9739">
        <ele>156.35</ele>
        <time>2019-06-21T07:38:04Z</time>
      </trkpt>
      <trkpt lat="49.66566" lon="4.97361">
        <ele>154.91</ele>
        <time>2019-06-21T07:38:22Z</time>
      </trkpt>
      <trkpt lat="49.66579" lon="4.97333">
        <ele>152.51</ele>
        <time>2019-06-21T07:38:41Z</time>
      </trkpt>
      <trkpt lat="49.66594" lon="4.97304">
        <ele>152.51</ele>
        <time>2019-06-21T07:38:59Z</time>
      </trkpt>
      <trkpt lat="49.66604" lon="4.9728">
        <ele>152.99</ele>
        <time>2019-06-21T07:39:17Z</time>
      </trkpt>
      <trkpt lat="49.66621" lon="4.97243">
        <ele>152.99</ele>
        <time>2019-06-21T07:39:38Z</time>
      </trkpt>
      <trkpt lat="49.66631" lon="4.97213">
        <ele>153.95</ele>
        <time>2019-06-21T07:39:57Z</time>
      </trkpt>
      <trkpt lat="49.66642" lon="4.97176">
        <ele>154.43</ele>
        <time>2019-06-21T07:40:17Z</time>
      </trkpt>
      <trkpt lat="49.66652" lon="4.97147">
        <ele>154.43</ele>
        <time>2019-06-21T07:40:35Z</time>
      </trkpt>
      <trkpt lat="49.66658" lon="4.97122">
        <ele>153.95</ele>
        <time>2019-06-21T07:40:52Z</time>
      </trkpt>
      <trkpt lat="49.66671" lon="4.97088">
        <ele>154.91</ele>
        <time>2019-06-21T07:41:12Z</time>
      </trkpt>
      <trkpt lat="49.66678" lon="4.9707">
        <ele>155.39</ele>
        <time>2019-06-21T07:41:25Z</time>
      </trkpt>
      <trkpt lat="49.66695" lon="4.97037">
        <ele>155.87</ele>
        <time>2019-06-21T07:41:46Z</time>
      </trkpt>
      <trkpt lat="49.66709" lon="4.97018">
        <ele>155.39</ele>
        <time>2019-06-21T07:42:04Z</time>
      </trkpt>
      <trkpt lat="49.66722" lon="4.96995">
        <ele>155.87</ele>
        <time>2019-06-21T07:42:22Z</time>
      </trkpt>
      <trkpt lat="49.66741" lon="4.96966">
        <ele>156.35</ele>
        <time>2019-06-21T07:42:42Z</time>
      </trkpt>
      <trkpt lat="49.66758" lon="4.96945">
        <ele>155.39</ele>
        <time>2019-06-21T07:43:01Z</time>
      </trkpt>
      <trkpt lat="49.66769" lon="4.96928">
        <ele>155.87</ele>
        <time>2019-06-21T07:43:15Z</time>
      </trkpt>
      <trkpt lat="49.66784" lon="4.96908">
        <ele>154.91</ele>
        <time>2019-06-21T07:43:32Z</time>
      </trkpt>
      <trkpt lat="49.66797" lon="4.96879">
        <ele>155.87</ele>
        <time>2019-06-21T07:43:51Z</time>
      </trkpt>
      <trkpt lat="49.66809" lon="4.96845">
        <ele>154.43</ele>
        <time>2019-06-21T07:44:10Z</time>
      </trkpt>
      <trkpt lat="49.66819" lon="4.96813">
        <ele>153.95</ele>
        <time>2019-06-21T07:44:30Z</time>
      </trkpt>
      <trkpt lat="49.66824" lon="4.96786">
        <ele>154.43</ele>
        <time>2019-06-21T07:44:46Z</time>
      </trkpt>
      <trkpt lat="49.66829" lon="4.96747">
        <ele>155.39</ele>
        <time>2019-06-21T07:45:05Z</time>
      </trkpt>
      <trkpt lat="49.66828" lon="4.96716">
        <ele>154.91</ele>
        <time>2019-06-21T07:45:23Z</time>
      </trkpt>
      <trkpt lat="49.66825" lon="4.96689">
        <ele>157.31</ele>
        <time>2019-06-21T07:45:40Z</time>
      </trkpt>
      <trkpt lat="49.66824" lon="4.96661">
        <ele>160.2</ele>
        <time>2019-06-21T07:45:56Z</time>
      </trkpt>
      <trkpt lat="49.66821" lon="4.96631">
        <ele>161.16</ele>
        <time>2019-06-21T07:46:14Z</time>
      </trkpt>
      <trkpt lat="49.66815" lon="4.96603">
        <ele>162.12</ele>
        <time>2019-06-21T07:46:29Z</time>
      </trkpt>
      <trkpt lat="49.6681" lon="4.96574">
        <ele>164.04</ele>
        <time>2019-06-21T07:46:46Z</time>
      </trkpt>
      <trkpt lat="49.66801" lon="4.96533">
        <ele>163.08</ele>
        <time>2019-06-21T07:47:08Z</time>
      </trkpt>
      <trkpt lat="49.66793" lon="4.96497">
        <ele>159.72</ele>
        <time>2019-06-21T07:47:28Z</time>
      </trkpt>
      <trkpt lat="49.66787" lon="4.96469">
        <ele>158.27</ele>
        <time>2019-06-21T07:47:45Z</time>
      </trkpt>
      <trkpt lat="49.6678" lon="4.96444">
        <ele>156.83</ele>
        <time>2019-06-21T07:48:01Z</time>
      </trkpt>
      <trkpt lat="49.66776" lon="4.96414">
        <ele>158.27</ele>
        <time>2019-06-21T07:48:17Z</time>
      </trkpt>
      <trkpt lat="49.66774" lon="4.9639">
        <ele>159.72</ele>
        <time>2019-06-21T07:48:31Z</time>
      </trkpt>
      <trkpt lat="49.66768" lon="4.96361">
        <ele>160.2</ele>
        <time>2019-06-21T07:48:47Z</time>
      </trkpt>
      <trkpt lat="49.66767" lon="4.96346">
        <ele>160.2</ele>
        <time>2019-06-21T07:48:58Z</time>
      </trkpt>
      <trkpt lat="49.66766" lon="4.96311">
        <ele>158.75</ele>
        <time>2019-06-21T07:49:16Z</time>
      </trkpt>
      <trkpt lat="49.66772" lon="4.96277">
        <ele>160.68</ele>
        <time>2019-06-21T07:49:35Z</time>
      </trkpt>
      <trkpt lat="49.66775" lon="4.96254">
        <ele>159.72</ele>
        <time>2019-06-21T07:49:49Z</time>
      </trkpt>
      <trkpt lat="49.66784" lon="4.96219">
        <ele>161.16</ele>
        <time>2019-06-21T07:50:07Z</time>
      </trkpt>
      <trkpt lat="49.66792" lon="4.96196">
        <ele>161.16</ele>
        <time>2019-06-21T07:50:24Z</time>
      </trkpt>
      <trkpt lat="49.66801" lon="4.96162">
        <ele>160.2</ele>
        <time>2019-06-21T07:50:41Z</time>
      </trkpt>
      <trkpt lat="49.66808" lon="4.96136">
        <ele>160.2</ele>
        <time>2019-06-21T07:50:58Z</time>
      </trkpt>
      <trkpt lat="49.6682" lon="4.96102">
        <ele>157.79</ele>
        <time>2019-06-21T07:51:16Z</time>
      </trkpt>
      <trkpt lat="49.6683" lon="4.96078">
        <ele>155.87</ele>
        <time>2019-06-21T07:51:34Z</time>
      </trkpt>
      <trkpt lat="49.6684" lon="4.96045">
        <ele>153.47</ele>
        <time>2019-06-21T07:51:54Z</time>
      </trkpt>
      <trkpt lat="49.6685" lon="4.96023">
        <ele>152.99</ele>
        <time>2019-06-21T07:52:10Z</time>
      </trkpt>
      <trkpt lat="49.66852" lon="4.96018">
        <ele>152.51</ele>
        <time>2019-06-21T07:52:14Z</time>
      </trkpt>
      <trkpt lat="49.66861" lon="4.95994">
        <ele>152.51</ele>
        <time>2019-06-21T07:52:29Z</time>
      </trkpt>
      <trkpt lat="49.66872" lon="4.95965">
        <ele>152.99</ele>
        <time>2019-06-21T07:52:48Z</time>
      </trkpt>
      <trkpt lat="49.66877" lon="4.95948">
        <ele>152.99</ele>
        <time>2019-06-21T07:53:05Z</time>
      </trkpt>
      <trkpt lat="49.66881" lon="4.9594">
        <ele>153.47</ele>
        <time>2019-06-21T07:53:21Z</time>
      </trkpt>
      <trkpt lat="49.66892" lon="4.95909">
        <ele>156.35</ele>
        <time>2019-06-21T07:53:39Z</time>
      </trkpt>
      <trkpt lat="49.66903" lon="4.95887">
        <ele>155.87</ele>
        <time>2019-06-21T07:53:56Z</time>
      </trkpt>
      <trkpt lat="49.66919" lon="4.95865">
        <ele>152.99</ele>
        <time>2019-06-21T07:54:13Z</time>
      </trkpt>
      <trkpt lat="49.66925" lon="4.95847">
        <ele>151.06</ele>
        <time>2019-06-21T07:54:26Z</time>
      </trkpt>
      <trkpt lat="49.66941" lon="4.95822">
        <ele>152.51</ele>
        <time>2019-06-21T07:54:44Z</time>
      </trkpt>
      <trkpt lat="49.66958" lon="4.95796">
        <ele>151.54</ele>
        <time>2019-06-21T07:55:04Z</time>
      </trkpt>
      <trkpt lat="49.66973" lon="4.95773">
        <ele>152.51</ele>
        <time>2019-06-21T07:55:22Z</time>
      </trkpt>
      <trkpt lat="49.6699" lon="4.95751">
        <ele>152.03</ele>
        <time>2019-06-21T07:55:41Z</time>
      </trkpt>
      <trkpt lat="49.67009" lon="4.95729">
        <ele>152.51</ele>
        <time>2019-06-21T07:56:01Z</time>
      </trkpt>
      <trkpt lat="49.67027" lon="4.95707">
        <ele>152.99</ele>
        <time>2019-06-21T07:56:20Z</time>
      </trkpt>
      <trkpt lat="49.67045" lon="4.95685">
        <ele>152.03</ele>
        <time>2019-06-21T07:56:39Z</time>
      </trkpt>
      <trkpt lat="49.67062" lon="4.95669">
        <ele>152.99</ele>
        <time>2019-06-21T07:56:56Z</time>
      </trkpt>
      <trkpt lat="49.6708" lon="4.95653">
        <ele>152.03</ele>
        <time>2019-06-21T07:57:14Z</time>
      </trkpt>
      <trkpt lat="49.67101" lon="4.95635">
        <ele>151.06</ele>
        <time>2019-06-21T07:57:34Z</time>
      </trkpt>
      <trkpt lat="49.67123" lon="4.95617">
        <ele>150.58</ele>
        <time>2019-06-21T07:57:55Z</time>
      </trkpt>
      <trkpt lat="49.67142" lon="4.95599">
        <ele>151.54</ele>
        <time>2019-06-21T07:58:14Z</time>
      </trkpt>
      <trkpt lat="49.67158" lon="4.95573">
        <ele>150.58</ele>
        <time>2019-06-21T07:58:33Z</time>
      </trkpt>
      <trkpt lat="49.67174" lon="4.95543">
        <ele>150.58</ele>
        <time>2019-06-21T07:58:54Z</time>
      </trkpt>
      <trkpt lat="49.67186" lon="4.95513">
        <ele>150.58</ele>
        <time>2019-06-21T07:59:13Z</time>
      </trkpt>
      <trkpt lat="49.67197" lon="4.95485">
        <ele>151.06</ele>
        <time>2019-06-21T07:59:32Z</time>
      </trkpt>
      <trkpt lat="49.67206" lon="4.95457">
        <ele>149.62</ele>
        <time>2019-06-21T07:59:50Z</time>
      </trkpt>
      <trkpt lat="49.67215" lon="4.95423">
        <ele>149.62</ele>
        <time>2019-06-21T08:00:09Z</time>
      </trkpt>
      <trkpt lat="49.67225" lon="4.95391">
        <ele>149.62</ele>
        <time>2019-06-21T08:00:29Z</time>
      </trkpt>
      <trkpt lat="49.67234" lon="4.95362">
        <ele>149.62</ele>
        <time>2019-06-21T08:00:47Z</time>
      </trkpt>
      <trkpt lat="49.67243" lon="4.95328">
        <ele>149.14</ele>
        <time>2019-06-21T08:01:08Z</time>
      </trkpt>
      <trkpt lat="49.67252" lon="4.95295">
        <ele>149.14</ele>
        <time>2019-06-21T08:01:28Z</time>
      </trkpt>
      <trkpt lat="49.67262" lon="4.95263">
        <ele>148.66</ele>
        <time>2019-06-21T08:01:48Z</time>
      </trkpt>
      <trkpt lat="49.67271" lon="4.95231">
        <ele>148.18</ele>
        <time>2019-06-21T08:02:07Z</time>
      </trkpt>
      <trkpt lat="49.67278" lon="4.95193">
        <ele>148.18</ele>
        <time>2019-06-21T08:02:29Z</time>
      </trkpt>
      <trkpt lat="49.67285" lon="4.9516">
        <ele>148.66</ele>
        <time>2019-06-21T08:02:48Z</time>
      </trkpt>
      <trkpt lat="49.67292" lon="4.95124">
        <ele>149.14</ele>
        <time>2019-06-21T08:03:10Z</time>
      </trkpt>
      <trkpt lat="49.673" lon="4.95087">
        <ele>150.58</ele>
        <time>2019-06-21T08:03:31Z</time>
      </trkpt>
      <trkpt lat="49.67306" lon="4.95053">
        <ele>151.54</ele>
        <time>2019-06-21T08:03:51Z</time>
      </trkpt>
      <trkpt lat="49.67312" lon="4.95019">
        <ele>151.54</ele>
        <time>2019-06-21T08:04:11Z</time>
      </trkpt>
      <trkpt lat="49.67319" lon="4.94982">
        <ele>153.47</ele>
        <time>2019-06-21T08:04:32Z</time>
      </trkpt>
      <trkpt lat="49.67325" lon="4.94952">
        <ele>152.99</ele>
        <time>2019-06-21T08:04:50Z</time>
      </trkpt>
      <trkpt lat="49.67332" lon="4.9492">
        <ele>151.54</ele>
        <time>2019-06-21T08:05:09Z</time>
      </trkpt>
      <trkpt lat="49.6734" lon="4.94886">
        <ele>152.51</ele>
        <time>2019-06-21T08:05:29Z</time>
      </trkpt>
      <trkpt lat="49.67351" lon="4.94857">
        <ele>152.51</ele>
        <time>2019-06-21T08:05:48Z</time>
      </trkpt>
      <trkpt lat="49.6736" lon="4.94833">
        <ele>152.51</ele>
        <time>2019-06-21T08:06:05Z</time>
      </trkpt>
      <trkpt lat="49.67373" lon="4.94806">
        <ele>152.03</ele>
        <time>2019-06-21T08:06:23Z</time>
      </trkpt>
      <trkpt lat="49.6739" lon="4.94787">
        <ele>152.51</ele>
        <time>2019-06-21T08:06:40Z</time>
      </trkpt>
      <trkpt lat="49.67409" lon="4.94771">
        <ele>153.95</ele>
        <time>2019-06-21T08:06:58Z</time>
      </trkpt>
      <trkpt lat="49.6743" lon="4.94752">
        <ele>154.43</ele>
        <time>2019-06-21T08:07:18Z</time>
      </trkpt>
      <trkpt lat="49.67448" lon="4.9474">
        <ele>155.87</ele>
        <time>2019-06-21T08:07:34Z</time>
      </trkpt>
      <trkpt lat="49.67467" lon="4.9473">
        <ele>156.35</ele>
        <time>2019-06-21T08:07:50Z</time>
      </trkpt>
      <trkpt lat="49.67487" lon="4.94718">
        <ele>157.31</ele>
        <time>2019-06-21T08:08:08Z</time>
      </trkpt>
      <trkpt lat="49.67504" lon="4.9471">
        <ele>156.35</ele>
        <time>2019-06-21T08:08:24Z</time>
      </trkpt>
      <trkpt lat="49.67524" lon="4.947">
        <ele>155.87</ele>
        <time>2019-06-21T08:08:40Z</time>
      </trkpt>
      <trkpt lat="49.67545" lon="4.94695">
        <ele>153.95</ele>
        <time>2019-06-21T08:08:59Z</time>
      </trkpt>
      <trkpt lat="49.67567" lon="4.94693">
        <ele>151.54</ele>
        <time>2019-06-21T08:09:19Z</time>
      </trkpt>
      <trkpt lat="49.67585" lon="4.94689">
        <ele>150.58</ele>
        <time>2019-06-21T08:09:35Z</time>
      </trkpt>
      <trkpt lat="49.67607" lon="4.94683">
        <ele>150.58</ele>
        <time>2019-06-21T08:09:52Z</time>
      </trkpt>
      <trkpt lat="49.67627" lon="4.94679">
        <ele>152.51</ele>
        <time>2019-06-21T08:10:09Z</time>
      </trkpt>
      <trkpt lat="49.67647" lon="4.94673">
        <ele>153.95</ele>
        <time>2019-06-21T08:10:27Z</time>
      </trkpt>
      <trkpt lat="49.67668" lon="4.9467">
        <ele>153.47</ele>
        <time>2019-06-21T08:10:44Z</time>
      </trkpt>
      <trkpt lat="49.67692" lon="4.94669">
        <ele>153.47</ele>
        <time>2019-06-21T08:11:04Z</time>
      </trkpt>
      <trkpt lat="49.67716" lon="4.9467">
        <ele>152.51</ele>
        <time>2019-06-21T08:11:25Z</time>
      </trkpt>
      <trkpt lat="49.67737" lon="4.94668">
        <ele>152.99</ele>
        <time>2019-06-21T08:11:43Z</time>
      </trkpt>
      <trkpt lat="49.67759" lon="4.94667">
        <ele>152.51</ele>
        <time>2019-06-21T08:12:01Z</time>
      </trkpt>
      <trkpt lat="49.6778" lon="4.94665">
        <ele>152.03</ele>
        <time>2019-06-21T08:12:19Z</time>
      </trkpt>
      <trkpt lat="49.67803" lon="4.94661">
        <ele>152.51</ele>
        <time>2019-06-21T08:12:39Z</time>
      </trkpt>
      <trkpt lat="49.67822" lon="4.94659">
        <ele>151.06</ele>
        <time>2019-06-21T08:12:58Z</time>
      </trkpt>
      <trkpt lat="49.67843" lon="4.94658">
        <ele>148.66</ele>
        <time>2019-06-21T08:13:17Z</time>
      </trkpt>
      <trkpt lat="49.67866" lon="4.9466">
        <ele>147.7</ele>
        <time>2019-06-21T08:13:36Z</time>
      </trkpt>
      <trkpt lat="49.67893" lon="4.94659">
        <ele>146.26</ele>
        <time>2019-06-21T08:13:58Z</time>
      </trkpt>
      <trkpt lat="49.67915" lon="4.94654">
        <ele>148.18</ele>
        <time>2019-06-21T08:14:17Z</time>
      </trkpt>
      <trkpt lat="49.67932" lon="4.94652">
        <ele>148.18</ele>
        <time>2019-06-21T08:14:34Z</time>
      </trkpt>
      <trkpt lat="49.67954" lon="4.94648">
        <ele>148.18</ele>
        <time>2019-06-21T08:14:53Z</time>
      </trkpt>
      <trkpt lat="49.67974" lon="4.94637">
        <ele>144.82</ele>
        <time>2019-06-21T08:15:11Z</time>
      </trkpt>
      <trkpt lat="49.67995" lon="4.94622">
        <ele>146.74</ele>
        <time>2019-06-21T08:15:29Z</time>
      </trkpt>
      <trkpt lat="49.68016" lon="4.94605">
        <ele>148.66</ele>
        <time>2019-06-21T08:15:49Z</time>
      </trkpt>
      <trkpt lat="49.68037" lon="4.94589">
        <ele>149.14</ele>
        <time>2019-06-21T08:16:08Z</time>
      </trkpt>
      <trkpt lat="49.68057" lon="4.94575">
        <ele>148.66</ele>
        <time>2019-06-21T08:16:28Z</time>
      </trkpt>
      <trkpt lat="49.68081" lon="4.94557">
        <ele>148.18</ele>
        <time>2019-06-21T08:16:49Z</time>
      </trkpt>
      <trkpt lat="49.68102" lon="4.94542">
        <ele>147.7</ele>
        <time>2019-06-21T08:17:09Z</time>
      </trkpt>
      <trkpt lat="49.68122" lon="4.9453">
        <ele>147.22</ele>
        <time>2019-06-21T08:17:28Z</time>
      </trkpt>
      <trkpt lat="49.68145" lon="4.94517">
        <ele>147.7</ele>
        <time>2019-06-21T08:17:48Z</time>
      </trkpt>
      <trkpt lat="49.68163" lon="4.94508">
        <ele>148.66</ele>
        <time>2019-06-21T08:18:03Z</time>
      </trkpt>
      <trkpt lat="49.68185" lon="4.945">
        <ele>148.66</ele>
        <time>2019-06-21T08:18:22Z</time>
      </trkpt>
      <trkpt lat="49.68206" lon="4.94493">
        <ele>149.62</ele>
        <time>2019-06-21T08:18:41Z</time>
      </trkpt>
      <trkpt lat="49.68226" lon="4.94485">
        <ele>146.74</ele>
        <time>2019-06-21T08:19:00Z</time>
      </trkpt>
      <trkpt lat="49.68249" lon="4.94479">
        <ele>145.3</ele>
        <time>2019-06-21T08:19:19Z</time>
      </trkpt>
      <trkpt lat="49.68272" lon="4.94473">
        <ele>146.74</ele>
        <time>2019-06-21T08:19:37Z</time>
      </trkpt>
      <trkpt lat="49.68291" lon="4.94469">
        <ele>146.26</ele>
        <time>2019-06-21T08:19:54Z</time>
      </trkpt>
      <trkpt lat="49.68313" lon="4.94465">
        <ele>146.74</ele>
        <time>2019-06-21T08:20:13Z</time>
      </trkpt>
      <trkpt lat="49.68332" lon="4.94459">
        <ele>144.34</ele>
        <time>2019-06-21T08:20:31Z</time>
      </trkpt>
      <trkpt lat="49.68357" lon="4.94453">
        <ele>142.41</ele>
        <time>2019-06-21T08:20:51Z</time>
      </trkpt>
      <trkpt lat="49.68378" lon="4.94447">
        <ele>144.82</ele>
        <time>2019-06-21T08:21:10Z</time>
      </trkpt>
      <trkpt lat="49.68398" lon="4.94441">
        <ele>144.82</ele>
        <time>2019-06-21T08:21:29Z</time>
      </trkpt>
      <trkpt lat="49.68417" lon="4.94437">
        <ele>144.82</ele>
        <time>2019-06-21T08:21:46Z</time>
      </trkpt>
      <trkpt lat="49.68437" lon="4.94432">
        <ele>144.34</ele>
        <time>2019-06-21T08:22:03Z</time>
      </trkpt>
      <trkpt lat="49.68454" lon="4.94427">
        <ele>143.85</ele>
        <time>2019-06-21T08:22:17Z</time>
      </trkpt>
      <trkpt lat="49.68471" lon="4.9442">
        <ele>144.82</ele>
        <time>2019-06-21T08:22:34Z</time>
      </trkpt>
      <trkpt lat="49.68492" lon="4.94407">
        <ele>144.82</ele>
        <time>2019-06-21T08:22:52Z</time>
      </trkpt>
      <trkpt lat="49.68511" lon="4.94397">
        <ele>146.74</ele>
        <time>2019-06-21T08:23:09Z</time>
      </trkpt>
      <trkpt lat="49.6853" lon="4.94386">
        <ele>148.18</ele>
        <time>2019-06-21T08:23:26Z</time>
      </trkpt>
      <trkpt lat="49.68549" lon="4.94369">
        <ele>150.1</ele>
        <time>2019-06-21T08:23:44Z</time>
      </trkpt>
      <trkpt lat="49.6857" lon="4.94366">
        <ele>151.06</ele>
        <time>2019-06-21T08:24:03Z</time>
      </trkpt>
      <trkpt lat="49.68581" lon="4.94368">
        <ele>152.03</ele>
        <time>2019-06-21T08:24:14Z</time>
      </trkpt>
      <trkpt lat="49.68601" lon="4.94366">
        <ele>150.58</ele>
        <time>2019-06-21T08:24:31Z</time>
      </trkpt>
      <trkpt lat="49.6862" lon="4.94363">
        <ele>149.14</ele>
        <time>2019-06-21T08:24:47Z</time>
      </trkpt>
      <trkpt lat="49.6864" lon="4.94359">
        <ele>147.7</ele>
        <time>2019-06-21T08:25:03Z</time>
      </trkpt>
      <trkpt lat="49.6866" lon="4.94356">
        <ele>146.26</ele>
        <time>2019-06-21T08:25:20Z</time>
      </trkpt>
      <trkpt lat="49.68682" lon="4.94352">
        <ele>143.85</ele>
        <time>2019-06-21T08:25:38Z</time>
      </trkpt>
      <trkpt lat="49.68698" lon="4.94351">
        <ele>144.82</ele>
        <time>2019-06-21T08:25:54Z</time>
      </trkpt>
      <trkpt lat="49.68718" lon="4.9435">
        <ele>145.3</ele>
        <time>2019-06-21T08:26:11Z</time>
      </trkpt>
      <trkpt lat="49.6872" lon="4.94351">
        <ele>145.3</ele>
        <time>2019-06-21T08:26:13Z</time>
      </trkpt>
      <trkpt lat="49.68739" lon="4.94344">
        <ele>145.78</ele>
        <time>2019-06-21T08:26:30Z</time>
      </trkpt>
      <trkpt lat="49.68759" lon="4.94336">
        <ele>144.82</ele>
        <time>2019-06-21T08:26:47Z</time>
      </trkpt>
      <trkpt lat="49.68775" lon="4.94329">
        <ele>142.89</ele>
        <time>2019-06-21T08:27:02Z</time>
      </trkpt>
      <trkpt lat="49.68778" lon="4.94327">
        <ele>141.45</ele>
        <time>2019-06-21T08:27:16Z</time>
      </trkpt>
      <trkpt lat="49.68779" lon="4.94325">
        <ele>140.97</ele>
        <time>2019-06-21T08:27:40Z</time>
      </trkpt>
      <trkpt lat="49.68781" lon="4.94325">
        <ele>138.57</ele>
        <time>2019-06-21T08:28:08Z</time>
      </trkpt>
      <trkpt lat="49.6878" lon="4.94326">
        <ele>138.09</ele>
        <time>2019-06-21T08:28:29Z</time>
      </trkpt>
      <trkpt lat="49.68793" lon="4.9432">
        <ele>138.57</ele>
        <time>2019-06-21T08:28:49Z</time>
      </trkpt>
      <trkpt lat="49.68822" lon="4.94308">
        <ele>140.01</ele>
        <time>2019-06-21T08:29:08Z</time>
      </trkpt>
      <trkpt lat="49.68847" lon="4.94298">
        <ele>142.41</ele>
        <time>2019-06-21T08:29:26Z</time>
      </trkpt>
      <trkpt lat="49.68867" lon="4.94288">
        <ele>143.85</ele>
        <time>2019-06-21T08:29:43Z</time>
      </trkpt>
      <trkpt lat="49.68884" lon="4.94277">
        <ele>142.89</ele>
        <time>2019-06-21T08:30:00Z</time>
      </trkpt>
      <trkpt lat="49.68903" lon="4.94265">
        <ele>144.34</ele>
        <time>2019-06-21T08:30:18Z</time>
      </trkpt>
      <trkpt lat="49.68923" lon="4.94251">
        <ele>146.26</ele>
        <time>2019-06-21T08:30:36Z</time>
      </trkpt>
      <trkpt lat="49.68942" lon="4.94233">
        <ele>143.85</ele>
        <time>2019-06-21T08:30:56Z</time>
      </trkpt>
      <trkpt lat="49.68958" lon="4.94218">
        <ele>144.34</ele>
        <time>2019-06-21T08:31:13Z</time>
      </trkpt>
      <trkpt lat="49.68973" lon="4.94198">
        <ele>145.3</ele>
        <time>2019-06-21T08:31:29Z</time>
      </trkpt>
      <trkpt lat="49.68988" lon="4.94175">
        <ele>144.34</ele>
        <time>2019-06-21T08:31:47Z</time>
      </trkpt>
      <trkpt lat="49.69" lon="4.94153">
        <ele>143.85</ele>
        <time>2019-06-21T08:32:03Z</time>
      </trkpt>
      <trkpt lat="49.69" lon="4.94153">
        <ele>144.34</ele>
        <time>2019-06-21T08:32:18Z</time>
      </trkpt>
      <trkpt lat="49.69001" lon="4.94153">
        <ele>144.34</ele>
        <time>2019-06-21T08:32:39Z</time>
      </trkpt>
      <trkpt lat="49.69001" lon="4.94153">
        <ele>144.34</ele>
        <time>2019-06-21T08:32:55Z</time>
      </trkpt>
      <trkpt lat="49.69001" lon="4.94153">
        <ele>144.34</ele>
        <time>2019-06-21T08:33:22Z</time>
      </trkpt>
      <trkpt lat="49.69003" lon="4.94146">
        <ele>145.3</ele>
        <time>2019-06-21T08:33:41Z</time>
      </trkpt>
      <trkpt lat="49.69016" lon="4.9412">
        <ele>148.66</ele>
        <time>2019-06-21T08:33:57Z</time>
      </trkpt>
      <trkpt lat="49.69027" lon="4.94093">
        <ele>148.66</ele>
        <time>2019-06-21T08:34:15Z</time>
      </trkpt>
      <trkpt lat="49.69039" lon="4.94067">
        <ele>149.14</ele>
        <time>2019-06-21T08:34:32Z</time>
      </trkpt>
      <trkpt lat="49.69053" lon="4.94044">
        <ele>151.54</ele>
        <time>2019-06-21T08:34:48Z</time>
      </trkpt>
      <trkpt lat="49.69066" lon="4.94018">
        <ele>154.43</ele>
        <time>2019-06-21T08:35:05Z</time>
      </trkpt>
      <trkpt lat="49.69075" lon="4.94005">
        <ele>156.83</ele>
        <time>2019-06-21T08:35:16Z</time>
      </trkpt>
      <trkpt lat="49.69091" lon="4.9398">
        <ele>160.2</ele>
        <time>2019-06-21T08:35:35Z</time>
      </trkpt>
      <trkpt lat="49.69107" lon="4.93956">
        <ele>161.64</ele>
        <time>2019-06-21T08:35:52Z</time>
      </trkpt>
      <trkpt lat="49.69122" lon="4.93931">
        <ele>163.56</ele>
        <time>2019-06-21T08:36:11Z</time>
      </trkpt>
      <trkpt lat="49.69137" lon="4.93912">
        <ele>165.96</ele>
        <time>2019-06-21T08:36:28Z</time>
      </trkpt>
      <trkpt lat="49.69152" lon="4.9389">
        <ele>167.89</ele>
        <time>2019-06-21T08:36:45Z</time>
      </trkpt>
      <trkpt lat="49.69167" lon="4.93872">
        <ele>168.37</ele>
        <time>2019-06-21T08:37:02Z</time>
      </trkpt>
      <trkpt lat="49.69177" lon="4.93861">
        <ele>168.37</ele>
        <time>2019-06-21T08:37:15Z</time>
      </trkpt>
      <trkpt lat="49.69183" lon="4.93851">
        <ele>165.48</ele>
        <time>2019-06-21T08:37:25Z</time>
      </trkpt>
      <trkpt lat="49.692" lon="4.93831">
        <ele>159.72</ele>
        <time>2019-06-21T08:37:44Z</time>
      </trkpt>
      <trkpt lat="49.69213" lon="4.93809">
        <ele>156.83</ele>
        <time>2019-06-21T08:38:00Z</time>
      </trkpt>
      <trkpt lat="49.6923" lon="4.93789">
        <ele>155.39</ele>
        <time>2019-06-21T08:38:17Z</time>
      </trkpt>
      <trkpt lat="49.69248" lon="4.93767">
        <ele>153.47</ele>
        <time>2019-06-21T08:38:37Z</time>
      </trkpt>
      <trkpt lat="49.69265" lon="4.93752">
        <ele>151.54</ele>
        <time>2019-06-21T08:38:54Z</time>
      </trkpt>
      <trkpt lat="49.6928" lon="4.93731">
        <ele>150.58</ele>
        <time>2019-06-21T08:39:12Z</time>
      </trkpt>
      <trkpt lat="49.69296" lon="4.9371">
        <ele>150.1</ele>
        <time>2019-06-21T08:39:30Z</time>
      </trkpt>
      <trkpt lat="49.69312" lon="4.93687">
        <ele>150.58</ele>
        <time>2019-06-21T08:39:46Z</time>
      </trkpt>
      <trkpt lat="49.69323" lon="4.93668">
        <ele>150.58</ele>
        <time>2019-06-21T08:40:00Z</time>
      </trkpt>
      <trkpt lat="49.69337" lon="4.93649">
        <ele>150.58</ele>
        <time>2019-06-21T08:40:16Z</time>
      </trkpt>
      <trkpt lat="49.69348" lon="4.93624">
        <ele>149.14</ele>
        <time>2019-06-21T08:40:32Z</time>
      </trkpt>
      <trkpt lat="49.69358" lon="4.93598">
        <ele>149.14</ele>
        <time>2019-06-21T08:40:47Z</time>
      </trkpt>
      <trkpt lat="49.6937" lon="4.93572">
        <ele>149.14</ele>
        <time>2019-06-21T08:41:03Z</time>
      </trkpt>
      <trkpt lat="49.6938" lon="4.93544">
        <ele>150.1</ele>
        <time>2019-06-21T08:41:20Z</time>
      </trkpt>
      <trkpt lat="49.69389" lon="4.93519">
        <ele>152.03</ele>
        <time>2019-06-21T08:41:35Z</time>
      </trkpt>
      <trkpt lat="49.69403" lon="4.93496">
        <ele>154.43</ele>
        <time>2019-06-21T08:41:52Z</time>
      </trkpt>
      <trkpt lat="49.69414" lon="4.93471">
        <ele>154.43</ele>
        <time>2019-06-21T08:42:10Z</time>
      </trkpt>
      <trkpt lat="49.69422" lon="4.9345">
        <ele>154.43</ele>
        <time>2019-06-21T08:42:25Z</time>
      </trkpt>
      <trkpt lat="49.69431" lon="4.93441">
        <ele>153.47</ele>
        <time>2019-06-21T08:42:38Z</time>
      </trkpt>
      <trkpt lat="49.69449" lon="4.93426">
        <ele>152.03</ele>
        <time>2019-06-21T08:42:56Z</time>
      </trkpt>
      <trkpt lat="49.69471" lon="4.93413">
        <ele>153.95</ele>
        <time>2019-06-21T08:43:16Z</time>
      </trkpt>
      <trkpt lat="49.69492" lon="4.93404">
        <ele>155.39</ele>
        <time>2019-06-21T08:43:33Z</time>
      </trkpt>
      <trkpt lat="49.69504" lon="4.934">
        <ele>157.79</ele>
        <time>2019-06-21T08:43:48Z</time>
      </trkpt>
      <trkpt lat="49.69523" lon="4.93394">
        <ele>161.64</ele>
        <time>2019-06-21T08:44:05Z</time>
      </trkpt>
      <trkpt lat="49.69546" lon="4.93391">
        <ele>162.12</ele>
        <time>2019-06-21T08:44:21Z</time>
      </trkpt>
      <trkpt lat="49.69557" lon="4.93384">
        <ele>161.64</ele>
        <time>2019-06-21T08:44:36Z</time>
      </trkpt>
      <trkpt lat="49.69574" lon="4.93379">
        <ele>153.47</ele>
        <time>2019-06-21T08:44:50Z</time>
      </trkpt>
      <trkpt lat="49.69587" lon="4.93364">
        <ele>153.47</ele>
        <time>2019-06-21T08:45:05Z</time>
      </trkpt>
      <trkpt lat="49.69605" lon="4.93353">
        <ele>154.91</ele>
        <time>2019-06-21T08:45:21Z</time>
      </trkpt>
      <trkpt lat="49.69624" lon="4.93344">
        <ele>155.87</ele>
        <time>2019-06-21T08:45:36Z</time>
      </trkpt>
      <trkpt lat="49.69639" lon="4.93338">
        <ele>154.91</ele>
        <time>2019-06-21T08:45:51Z</time>
      </trkpt>
      <trkpt lat="49.69657" lon="4.93334">
        <ele>155.39</ele>
        <time>2019-06-21T08:46:07Z</time>
      </trkpt>
      <trkpt lat="49.69674" lon="4.93333">
        <ele>154.43</ele>
        <time>2019-06-21T08:46:21Z</time>
      </trkpt>
      <trkpt lat="49.69693" lon="4.93338">
        <ele>152.51</ele>
        <time>2019-06-21T08:46:38Z</time>
      </trkpt>
      <trkpt lat="49.69713" lon="4.93346">
        <ele>151.54</ele>
        <time>2019-06-21T08:46:56Z</time>
      </trkpt>
      <trkpt lat="49.69731" lon="4.93361">
        <ele>150.1</ele>
        <time>2019-06-21T08:47:12Z</time>
      </trkpt>
      <trkpt lat="49.69749" lon="4.93375">
        <ele>148.18</ele>
        <time>2019-06-21T08:47:28Z</time>
      </trkpt>
      <trkpt lat="49.69767" lon="4.93389">
        <ele>146.26</ele>
        <time>2019-06-21T08:47:46Z</time>
      </trkpt>
      <trkpt lat="49.69785" lon="4.93406">
        <ele>144.82</ele>
        <time>2019-06-21T08:48:04Z</time>
      </trkpt>
      <trkpt lat="49.69801" lon="4.93421">
        <ele>142.89</ele>
        <time>2019-06-21T08:48:21Z</time>
      </trkpt>
      <trkpt lat="49.69819" lon="4.93438">
        <ele>141.93</ele>
        <time>2019-06-21T08:48:38Z</time>
      </trkpt>
      <trkpt lat="49.69838" lon="4.93454">
        <ele>141.45</ele>
        <time>2019-06-21T08:48:57Z</time>
      </trkpt>
      <trkpt lat="49.69855" lon="4.93474">
        <ele>139.05</ele>
        <time>2019-06-21T08:49:16Z</time>
      </trkpt>
      <trkpt lat="49.69872" lon="4.93488">
        <ele>138.09</ele>
        <time>2019-06-21T08:49:32Z</time>
      </trkpt>
      <trkpt lat="49.69886" lon="4.93504">
        <ele>137.13</ele>
        <time>2019-06-21T08:49:48Z</time>
      </trkpt>
      <trkpt lat="49.69901" lon="4.93517">
        <ele>135.2</ele>
        <time>2019-06-21T08:50:06Z</time>
      </trkpt>
      <trkpt lat="49.69918" lon="4.93531">
        <ele>133.76</ele>
        <time>2019-06-21T08:50:22Z</time>
      </trkpt>
      <trkpt lat="49.6992" lon="4.93535">
        <ele>133.28</ele>
        <time>2019-06-21T08:50:26Z</time>
      </trkpt>
      <trkpt lat="49.69926" lon="4.93539">
        <ele>132.32</ele>
        <time>2019-06-21T08:50:31Z</time>
      </trkpt>
      <trkpt lat="49.69938" lon="4.93558">
        <ele>128.95</ele>
        <time>2019-06-21T08:50:47Z</time>
      </trkpt>
      <trkpt lat="49.69959" lon="4.93565">
        <ele>131.84</ele>
        <time>2019-06-21T08:51:04Z</time>
      </trkpt>
      <trkpt lat="49.69977" lon="4.9357">
        <ele>133.28</ele>
        <time>2019-06-21T08:51:20Z</time>
      </trkpt>
      <trkpt lat="49.70003" lon="4.93572">
        <ele>138.57</ele>
        <time>2019-06-21T08:51:37Z</time>
      </trkpt>
      <trkpt lat="49.7001" lon="4.93573">
        <ele>139.53</ele>
        <time>2019-06-21T08:51:42Z</time>
      </trkpt>
      <trkpt lat="49.70017" lon="4.93573">
        <ele>140.97</ele>
        <time>2019-06-21T08:51:46Z</time>
      </trkpt>
      <trkpt lat="49.70036" lon="4.93577">
        <ele>142.89</ele>
        <time>2019-06-21T08:52:03Z</time>
      </trkpt>
      <trkpt lat="49.70058" lon="4.93577">
        <ele>144.34</ele>
        <time>2019-06-21T08:52:21Z</time>
      </trkpt>
      <trkpt lat="49.70077" lon="4.93581">
        <ele>147.22</ele>
        <time>2019-06-21T08:52:38Z</time>
      </trkpt>
      <trkpt lat="49.70097" lon="4.93579">
        <ele>149.62</ele>
        <time>2019-06-21T08:52:54Z</time>
      </trkpt>
      <trkpt lat="49.70116" lon="4.9358">
        <ele>148.66</ele>
        <time>2019-06-21T08:53:10Z</time>
      </trkpt>
      <trkpt lat="49.7012" lon="4.93585">
        <ele>148.66</ele>
        <time>2019-06-21T08:53:17Z</time>
      </trkpt>
      <trkpt lat="49.70142" lon="4.93576">
        <ele>146.26</ele>
        <time>2019-06-21T08:53:36Z</time>
      </trkpt>
      <trkpt lat="49.70158" lon="4.93568">
        <ele>146.26</ele>
        <time>2019-06-21T08:53:51Z</time>
      </trkpt>
      <trkpt lat="49.70181" lon="4.93559">
        <ele>146.26</ele>
        <time>2019-06-21T08:54:10Z</time>
      </trkpt>
      <trkpt lat="49.70202" lon="4.93554">
        <ele>148.18</ele>
        <time>2019-06-21T08:54:26Z</time>
      </trkpt>
      <trkpt lat="49.70221" lon="4.93548">
        <ele>146.26</ele>
        <time>2019-06-21T08:54:43Z</time>
      </trkpt>
      <trkpt lat="49.70226" lon="4.93547">
        <ele>145.78</ele>
        <time>2019-06-21T08:54:49Z</time>
      </trkpt>
      <trkpt lat="49.70247" lon="4.93541">
        <ele>144.34</ele>
        <time>2019-06-21T08:55:08Z</time>
      </trkpt>
      <trkpt lat="49.70265" lon="4.93539">
        <ele>143.85</ele>
        <time>2019-06-21T08:55:24Z</time>
      </trkpt>
      <trkpt lat="49.70283" lon="4.93536">
        <ele>145.78</ele>
        <time>2019-06-21T08:55:39Z</time>
      </trkpt>
      <trkpt lat="49.70304" lon="4.93532">
        <ele>145.78</ele>
        <time>2019-06-21T08:55:57Z</time>
      </trkpt>
      <trkpt lat="49.70324" lon="4.93523">
        <ele>145.78</ele>
        <time>2019-06-21T08:56:14Z</time>
      </trkpt>
      <trkpt lat="49.70332" lon="4.93518">
        <ele>144.34</ele>
        <time>2019-06-21T08:56:24Z</time>
      </trkpt>
      <trkpt lat="49.70344" lon="4.93515">
        <ele>143.37</ele>
        <time>2019-06-21T08:56:35Z</time>
      </trkpt>
      <trkpt lat="49.70357" lon="4.93511">
        <ele>142.89</ele>
        <time>2019-06-21T08:56:46Z</time>
      </trkpt>
      <trkpt lat="49.70376" lon="4.93505">
        <ele>140.49</ele>
        <time>2019-06-21T08:57:03Z</time>
      </trkpt>
      <trkpt lat="49.70393" lon="4.935">
        <ele>140.49</ele>
        <time>2019-06-21T08:57:19Z</time>
      </trkpt>
      <trkpt lat="49.70413" lon="4.93496">
        <ele>141.93</ele>
        <time>2019-06-21T08:57:36Z</time>
      </trkpt>
      <trkpt lat="49.7043" lon="4.93492">
        <ele>143.37</ele>
        <time>2019-06-21T08:57:50Z</time>
      </trkpt>
      <trkpt lat="49.70447" lon="4.93489">
        <ele>144.34</ele>
        <time>2019-06-21T08:58:07Z</time>
      </trkpt>
      <trkpt lat="49.70451" lon="4.9349">
        <ele>145.78</ele>
        <time>2019-06-21T08:58:12Z</time>
      </trkpt>
      <trkpt lat="49.70465" lon="4.93483">
        <ele>145.78</ele>
        <time>2019-06-21T08:58:28Z</time>
      </trkpt>
      <trkpt lat="49.70482" lon="4.93467">
        <ele>145.3</ele>
        <time>2019-06-21T08:58:45Z</time>
      </trkpt>
      <trkpt lat="49.70484" lon="4.93465">
        <ele>145.3</ele>
        <time>2019-06-21T08:58:48Z</time>
      </trkpt>
      <trkpt lat="49.70501" lon="4.93451">
        <ele>145.78</ele>
        <time>2019-06-21T08:59:04Z</time>
      </trkpt>
      <trkpt lat="49.70511" lon="4.93433">
        <ele>147.7</ele>
        <time>2019-06-21T08:59:21Z</time>
      </trkpt>
      <trkpt lat="49.70516" lon="4.93422">
        <ele>151.06</ele>
        <time>2019-06-21T08:59:36Z</time>
      </trkpt>
      <trkpt lat="49.70525" lon="4.93414">
        <ele>152.03</ele>
        <time>2019-06-21T08:59:49Z</time>
      </trkpt>
      <trkpt lat="49.70538" lon="4.93403">
        <ele>152.99</ele>
        <time>2019-06-21T09:00:03Z</time>
      </trkpt>
      <trkpt lat="49.7055" lon="4.93394">
        <ele>152.99</ele>
        <time>2019-06-21T09:00:15Z</time>
      </trkpt>
      <trkpt lat="49.70554" lon="4.93384">
        <ele>152.03</ele>
        <time>2019-06-21T09:00:29Z</time>
      </trkpt>
      <trkpt lat="49.70556" lon="4.93382">
        <ele>152.51</ele>
        <time>2019-06-21T09:00:48Z</time>
      </trkpt>
      <trkpt lat="49.70557" lon="4.9338">
        <ele>152.03</ele>
        <time>2019-06-21T09:01:06Z</time>
      </trkpt>
      <trkpt lat="49.70557" lon="4.9338">
        <ele>152.03</ele>
        <time>2019-06-21T09:01:29Z</time>
      </trkpt>
      <trkpt lat="49.70556" lon="4.9338">
        <ele>152.03</ele>
        <time>2019-06-21T09:01:59Z</time>
      </trkpt>
      <trkpt lat="49.70556" lon="4.9338">
        <ele>151.54</ele>
        <time>2019-06-21T09:02:33Z</time>
      </trkpt>
      <trkpt lat="49.70556" lon="4.9338">
        <ele>151.54</ele>
        <time>2019-06-21T09:03:03Z</time>
      </trkpt>
      <trkpt lat="49.70556" lon="4.9338">
        <ele>151.06</ele>
        <time>2019-06-21T09:03:37Z</time>
      </trkpt>
      <trkpt lat="49.70556" lon="4.93382">
        <ele>150.58</ele>
        <time>2019-06-21T09:04:04Z</time>
      </trkpt>
      <trkpt lat="49.70557" lon="4.93383">
        <ele>151.06</ele>
        <time>2019-06-21T09:04:28Z</time>
      </trkpt>
      <trkpt lat="49.70557" lon="4.93384">
        <ele>150.58</ele>
        <time>2019-06-21T09:04:51Z</time>
      </trkpt>
      <trkpt lat="49.70558" lon="4.93384">
        <ele>151.06</ele>
        <time>2019-06-21T09:05:14Z</time>
      </trkpt>
      <trkpt lat="49.70559" lon="4.93383">
        <ele>151.54</ele>
        <time>2019-06-21T09:05:35Z</time>
      </trkpt>
      <trkpt lat="49.70558" lon="4.9338">
        <ele>151.54</ele>
        <time>2019-06-21T09:05:54Z</time>
      </trkpt>
      <trkpt lat="49.70557" lon="4.9338">
        <ele>151.06</ele>
        <time>2019-06-21T09:06:24Z</time>
      </trkpt>
      <trkpt lat="49.70557" lon="4.9338">
        <ele>151.06</ele>
        <time>2019-06-21T09:06:56Z</time>
      </trkpt>
      <trkpt lat="49.70556" lon="4.9338">
        <ele>151.06</ele>
        <time>2019-06-21T09:07:28Z</time>
      </trkpt>
      <trkpt lat="49.70556" lon="4.9338">
        <ele>151.06</ele>
        <time>2019-06-21T09:07:57Z</time>
      </trkpt>
      <trkpt lat="49.70557" lon="4.9338">
        <ele>151.06</ele>
        <time>2019-06-21T09:08:28Z</time>
      </trkpt>
      <trkpt lat="49.70556" lon="4.93381">
        <ele>151.06</ele>
        <time>2019-06-21T09:09:01Z</time>
      </trkpt>
      <trkpt lat="49.70556" lon="4.9338">
        <ele>151.54</ele>
        <time>2019-06-21T09:09:26Z</time>
      </trkpt>
      <trkpt lat="49.70556" lon="4.93379">
        <ele>150.58</ele>
        <time>2019-06-21T09:09:57Z</time>
      </trkpt>
      <trkpt lat="49.70556" lon="4.9338">
        <ele>150.58</ele>
        <time>2019-06-21T09:10:20Z</time>
      </trkpt>
      <trkpt lat="49.70557" lon="4.93379">
        <ele>151.54</ele>
        <time>2019-06-21T09:10:44Z</time>
      </trkpt>
      <trkpt lat="49.70557" lon="4.93378">
        <ele>152.51</ele>
        <time>2019-06-21T09:11:11Z</time>
      </trkpt>
      <trkpt lat="49.70557" lon="4.93378">
        <ele>152.03</ele>
        <time>2019-06-21T09:11:39Z</time>
      </trkpt>
      <trkpt lat="49.70556" lon="4.93377">
        <ele>152.03</ele>
        <time>2019-06-21T09:12:01Z</time>
      </trkpt>
      <trkpt lat="49.70549" lon="4.93386">
        <ele>152.03</ele>
        <time>2019-06-21T09:12:19Z</time>
      </trkpt>
      <trkpt lat="49.70533" lon="4.93397">
        <ele>151.54</ele>
        <time>2019-06-21T09:12:37Z</time>
      </trkpt>
      <trkpt lat="49.70512" lon="4.9342">
        <ele>150.1</ele>
        <time>2019-06-21T09:12:59Z</time>
      </trkpt>
      <trkpt lat="49.70504" lon="4.93442">
        <ele>146.74</ele>
        <time>2019-06-21T09:13:19Z</time>
      </trkpt>
      <trkpt lat="49.70503" lon="4.93446">
        <ele>145.78</ele>
        <time>2019-06-21T09:13:22Z</time>
      </trkpt>
      <trkpt lat="49.70492" lon="4.93455">
        <ele>144.34</ele>
        <time>2019-06-21T09:13:31Z</time>
      </trkpt>
      <trkpt lat="49.70466" lon="4.93475">
        <ele>145.78</ele>
        <time>2019-06-21T09:13:50Z</time>
      </trkpt>
      <trkpt lat="49.7045" lon="4.93491">
        <ele>152.51</ele>
        <time>2019-06-21T09:14:10Z</time>
      </trkpt>
      <trkpt lat="49.70432" lon="4.93496">
        <ele>153.95</ele>
        <time>2019-06-21T09:14:28Z</time>
      </trkpt>
      <trkpt lat="49.70419" lon="4.93499">
        <ele>153.47</ele>
        <time>2019-06-21T09:14:42Z</time>
      </trkpt>
      <trkpt lat="49.70399" lon="4.93501">
        <ele>153.95</ele>
        <time>2019-06-21T09:14:59Z</time>
      </trkpt>
      <trkpt lat="49.70377" lon="4.93506">
        <ele>154.43</ele>
        <time>2019-06-21T09:15:18Z</time>
      </trkpt>
      <trkpt lat="49.70353" lon="4.93511">
        <ele>154.91</ele>
        <time>2019-06-21T09:15:38Z</time>
      </trkpt>
      <trkpt lat="49.70331" lon="4.93517">
        <ele>156.35</ele>
        <time>2019-06-21T09:15:56Z</time>
      </trkpt>
      <trkpt lat="49.70314" lon="4.93524">
        <ele>158.75</ele>
        <time>2019-06-21T09:16:12Z</time>
      </trkpt>
      <trkpt lat="49.70295" lon="4.93533">
        <ele>158.27</ele>
        <time>2019-06-21T09:16:28Z</time>
      </trkpt>
      <trkpt lat="49.70275" lon="4.93539">
        <ele>155.39</ele>
        <time>2019-06-21T09:16:46Z</time>
      </trkpt>
      <trkpt lat="49.70254" lon="4.93543">
        <ele>155.87</ele>
        <time>2019-06-21T09:17:05Z</time>
      </trkpt>
      <trkpt lat="49.7023" lon="4.93547">
        <ele>156.83</ele>
        <time>2019-06-21T09:17:26Z</time>
      </trkpt>
      <trkpt lat="49.70211" lon="4.93551">
        <ele>156.83</ele>
        <time>2019-06-21T09:17:42Z</time>
      </trkpt>
      <trkpt lat="49.70192" lon="4.93555">
        <ele>157.31</ele>
        <time>2019-06-21T09:17:58Z</time>
      </trkpt>
      <trkpt lat="49.7017" lon="4.93562">
        <ele>155.39</ele>
        <time>2019-06-21T09:18:18Z</time>
      </trkpt>
      <trkpt lat="49.70147" lon="4.93567">
        <ele>152.03</ele>
        <time>2019-06-21T09:18:38Z</time>
      </trkpt>
      <trkpt lat="49.70128" lon="4.93574">
        <ele>149.62</ele>
        <time>2019-06-21T09:18:53Z</time>
      </trkpt>
      <trkpt lat="49.7012" lon="4.93577">
        <ele>148.18</ele>
        <time>2019-06-21T09:19:04Z</time>
      </trkpt>
      <trkpt lat="49.70113" lon="4.93574">
        <ele>147.22</ele>
        <time>2019-06-21T09:19:14Z</time>
      </trkpt>
      <trkpt lat="49.70093" lon="4.93578">
        <ele>148.18</ele>
        <time>2019-06-21T09:19:33Z</time>
      </trkpt>
      <trkpt lat="49.70075" lon="4.93575">
        <ele>149.14</ele>
        <time>2019-06-21T09:19:50Z</time>
      </trkpt>
      <trkpt lat="49.70051" lon="4.93575">
        <ele>154.43</ele>
        <time>2019-06-21T09:20:10Z</time>
      </trkpt>
      <trkpt lat="49.70027" lon="4.93576">
        <ele>155.39</ele>
        <time>2019-06-21T09:20:28Z</time>
      </trkpt>
      <trkpt lat="49.70009" lon="4.93575">
        <ele>155.87</ele>
        <time>2019-06-21T09:20:44Z</time>
      </trkpt>
      <trkpt lat="49.69988" lon="4.93573">
        <ele>156.83</ele>
        <time>2019-06-21T09:21:00Z</time>
      </trkpt>
      <trkpt lat="49.69969" lon="4.93566">
        <ele>156.35</ele>
        <time>2019-06-21T09:21:17Z</time>
      </trkpt>
      <trkpt lat="49.69951" lon="4.93558">
        <ele>154.91</ele>
        <time>2019-06-21T09:21:32Z</time>
      </trkpt>
      <trkpt lat="49.69931" lon="4.93541">
        <ele>152.51</ele>
        <time>2019-06-21T09:21:51Z</time>
      </trkpt>
      <trkpt lat="49.69914" lon="4.93517">
        <ele>149.62</ele>
        <time>2019-06-21T09:22:10Z</time>
      </trkpt>
      <trkpt lat="49.69897" lon="4.93504">
        <ele>149.62</ele>
        <time>2019-06-21T09:22:27Z</time>
      </trkpt>
      <trkpt lat="49.69877" lon="4.93493">
        <ele>151.06</ele>
        <time>2019-06-21T09:22:43Z</time>
      </trkpt>
      <trkpt lat="49.69871" lon="4.93488">
        <ele>151.54</ele>
        <time>2019-06-21T09:22:48Z</time>
      </trkpt>
      <trkpt lat="49.6985" lon="4.93468">
        <ele>151.54</ele>
        <time>2019-06-21T09:23:08Z</time>
      </trkpt>
      <trkpt lat="49.69831" lon="4.93448">
        <ele>149.14</ele>
        <time>2019-06-21T09:23:27Z</time>
      </trkpt>
      <trkpt lat="49.69811" lon="4.93428">
        <ele>145.78</ele>
        <time>2019-06-21T09:23:47Z</time>
      </trkpt>
      <trkpt lat="49.69794" lon="4.93415">
        <ele>145.78</ele>
        <time>2019-06-21T09:24:04Z</time>
      </trkpt>
      <trkpt lat="49.69783" lon="4.93407">
        <ele>146.26</ele>
        <time>2019-06-21T09:24:14Z</time>
      </trkpt>
      <trkpt lat="49.69765" lon="4.93386">
        <ele>146.26</ele>
        <time>2019-06-21T09:24:32Z</time>
      </trkpt>
      <trkpt lat="49.69742" lon="4.93374">
        <ele>148.18</ele>
        <time>2019-06-21T09:24:51Z</time>
      </trkpt>
      <trkpt lat="49.69739" lon="4.9337">
        <ele>148.18</ele>
        <time>2019-06-21T09:24:54Z</time>
      </trkpt>
      <trkpt lat="49.69721" lon="4.93358">
        <ele>147.7</ele>
        <time>2019-06-21T09:25:11Z</time>
      </trkpt>
      <trkpt lat="49.69702" lon="4.93339">
        <ele>146.74</ele>
        <time>2019-06-21T09:25:30Z</time>
      </trkpt>
      <trkpt lat="49.6969" lon="4.93333">
        <ele>147.22</ele>
        <time>2019-06-21T09:25:42Z</time>
      </trkpt>
      <trkpt lat="49.6967" lon="4.93329">
        <ele>145.3</ele>
        <time>2019-06-21T09:25:59Z</time>
      </trkpt>
      <trkpt lat="49.69647" lon="4.93333">
        <ele>142.89</ele>
        <time>2019-06-21T09:26:18Z</time>
      </trkpt>
      <trkpt lat="49.69629" lon="4.93341">
        <ele>142.89</ele>
        <time>2019-06-21T09:26:32Z</time>
      </trkpt>
      <trkpt lat="49.69608" lon="4.93349">
        <ele>144.82</ele>
        <time>2019-06-21T09:26:49Z</time>
      </trkpt>
      <trkpt lat="49.69583" lon="4.93362">
        <ele>146.26</ele>
        <time>2019-06-21T09:27:08Z</time>
      </trkpt>
      <trkpt lat="49.69565" lon="4.93369">
        <ele>146.26</ele>
        <time>2019-06-21T09:27:23Z</time>
      </trkpt>
      <trkpt lat="49.69554" lon="4.9337">
        <ele>149.62</ele>
        <time>2019-06-21T09:27:35Z</time>
      </trkpt>
      <trkpt lat="49.69544" lon="4.93374">
        <ele>150.58</ele>
        <time>2019-06-21T09:27:43Z</time>
      </trkpt>
      <trkpt lat="49.69524" lon="4.9338">
        <ele>152.51</ele>
        <time>2019-06-21T09:28:01Z</time>
      </trkpt>
      <trkpt lat="49.69507" lon="4.93389">
        <ele>153.47</ele>
        <time>2019-06-21T09:28:18Z</time>
      </trkpt>
      <trkpt lat="49.69486" lon="4.93399">
        <ele>155.87</ele>
        <time>2019-06-21T09:28:37Z</time>
      </trkpt>
      <trkpt lat="49.6946" lon="4.93411">
        <ele>156.35</ele>
        <time>2019-06-21T09:28:57Z</time>
      </trkpt>
      <trkpt lat="49.69443" lon="4.9343">
        <ele>153.95</ele>
        <time>2019-06-21T09:29:15Z</time>
      </trkpt>
      <trkpt lat="49.69426" lon="4.93451">
        <ele>156.35</ele>
        <time>2019-06-21T09:29:31Z</time>
      </trkpt>
      <trkpt lat="49.69406" lon="4.93483">
        <ele>157.79</ele>
        <time>2019-06-21T09:29:50Z</time>
      </trkpt>
      <trkpt lat="49.69393" lon="4.93511">
        <ele>157.79</ele>
        <time>2019-06-21T09:30:09Z</time>
      </trkpt>
      <trkpt lat="49.69376" lon="4.93545">
        <ele>158.27</ele>
        <time>2019-06-21T09:30:32Z</time>
      </trkpt>
      <trkpt lat="49.69363" lon="4.93578">
        <ele>157.31</ele>
        <time>2019-06-21T09:30:54Z</time>
      </trkpt>
      <trkpt lat="49.69351" lon="4.93609">
        <ele>157.79</ele>
        <time>2019-06-21T09:31:12Z</time>
      </trkpt>
      <trkpt lat="49.69338" lon="4.93644">
        <ele>157.31</ele>
        <time>2019-06-21T09:31:34Z</time>
      </trkpt>
      <trkpt lat="49.69323" lon="4.93666">
        <ele>159.24</ele>
        <time>2019-06-21T09:31:53Z</time>
      </trkpt>
      <trkpt lat="49.69306" lon="4.93689">
        <ele>159.24</ele>
        <time>2019-06-21T09:32:12Z</time>
      </trkpt>
      <trkpt lat="49.69292" lon="4.93713">
        <ele>159.72</ele>
        <time>2019-06-21T09:32:30Z</time>
      </trkpt>
      <trkpt lat="49.69276" lon="4.93736">
        <ele>161.64</ele>
        <time>2019-06-21T09:32:48Z</time>
      </trkpt>
      <trkpt lat="49.69258" lon="4.93759">
        <ele>161.64</ele>
        <time>2019-06-21T09:33:06Z</time>
      </trkpt>
      <trkpt lat="49.69239" lon="4.93779">
        <ele>162.6</ele>
        <time>2019-06-21T09:33:25Z</time>
      </trkpt>
      <trkpt lat="49.69222" lon="4.93798">
        <ele>163.08</ele>
        <time>2019-06-21T09:33:41Z</time>
      </trkpt>
      <trkpt lat="49.69204" lon="4.93825">
        <ele>162.6</ele>
        <time>2019-06-21T09:34:01Z</time>
      </trkpt>
      <trkpt lat="49.69186" lon="4.93842">
        <ele>163.08</ele>
        <time>2019-06-21T09:34:21Z</time>
      </trkpt>
      <trkpt lat="49.69178" lon="4.93848">
        <ele>162.12</ele>
        <time>2019-06-21T09:34:28Z</time>
      </trkpt>
      <trkpt lat="49.6917" lon="4.93849">
        <ele>162.12</ele>
        <time>2019-06-21T09:34:32Z</time>
      </trkpt>
      <trkpt lat="49.69152" lon="4.93873">
        <ele>161.16</ele>
        <time>2019-06-21T09:34:52Z</time>
      </trkpt>
      <trkpt lat="49.69131" lon="4.93906">
        <ele>160.68</ele>
        <time>2019-06-21T09:35:15Z</time>
      </trkpt>
      <trkpt lat="49.69114" lon="4.93927">
        <ele>159.24</ele>
        <time>2019-06-21T09:35:31Z</time>
      </trkpt>
      <trkpt lat="49.69099" lon="4.93948">
        <ele>159.24</ele>
        <time>2019-06-21T09:35:49Z</time>
      </trkpt>
      <trkpt lat="49.69084" lon="4.93971">
        <ele>159.24</ele>
        <time>2019-06-21T09:36:06Z</time>
      </trkpt>
      <trkpt lat="49.6907" lon="4.93992">
        <ele>158.75</ele>
        <time>2019-06-21T09:36:24Z</time>
      </trkpt>
      <trkpt lat="49.69053" lon="4.94018">
        <ele>157.31</ele>
        <time>2019-06-21T09:36:44Z</time>
      </trkpt>
      <trkpt lat="49.69038" lon="4.94056">
        <ele>153.95</ele>
        <time>2019-06-21T09:37:03Z</time>
      </trkpt>
      <trkpt lat="49.69026" lon="4.94081">
        <ele>151.06</ele>
        <time>2019-06-21T09:37:20Z</time>
      </trkpt>
      <trkpt lat="49.69019" lon="4.94114">
        <ele>152.03</ele>
        <time>2019-06-21T09:37:42Z</time>
      </trkpt>
      <trkpt lat="49.69006" lon="4.94144">
        <ele>153.95</ele>
        <time>2019-06-21T09:37:59Z</time>
      </trkpt>
      <trkpt lat="49.68991" lon="4.9417">
        <ele>159.24</ele>
        <time>2019-06-21T09:38:16Z</time>
      </trkpt>
      <trkpt lat="49.68976" lon="4.94197">
        <ele>156.83</ele>
        <time>2019-06-21T09:38:37Z</time>
      </trkpt>
      <trkpt lat="49.68957" lon="4.94222">
        <ele>158.27</ele>
        <time>2019-06-21T09:38:54Z</time>
      </trkpt>
      <trkpt lat="49.68938" lon="4.94241">
        <ele>157.79</ele>
        <time>2019-06-21T09:39:14Z</time>
      </trkpt>
      <trkpt lat="49.68917" lon="4.94257">
        <ele>156.35</ele>
        <time>2019-06-21T09:39:35Z</time>
      </trkpt>
      <trkpt lat="49.68897" lon="4.94275">
        <ele>155.87</ele>
        <time>2019-06-21T09:39:54Z</time>
      </trkpt>
      <trkpt lat="49.68875" lon="4.94288">
        <ele>154.43</ele>
        <time>2019-06-21T09:40:14Z</time>
      </trkpt>
      <trkpt lat="49.68853" lon="4.943">
        <ele>152.51</ele>
        <time>2019-06-21T09:40:35Z</time>
      </trkpt>
      <trkpt lat="49.68828" lon="4.94312">
        <ele>155.87</ele>
        <time>2019-06-21T09:40:59Z</time>
      </trkpt>
      <trkpt lat="49.68806" lon="4.94319">
        <ele>158.27</ele>
        <time>2019-06-21T09:41:17Z</time>
      </trkpt>
      <trkpt lat="49.68797" lon="4.94326">
        <ele>164.04</ele>
        <time>2019-06-21T09:41:34Z</time>
      </trkpt>
      <trkpt lat="49.68771" lon="4.94336">
        <ele>166.93</ele>
        <time>2019-06-21T09:41:52Z</time>
      </trkpt>
      <trkpt lat="49.68739" lon="4.94343">
        <ele>169.33</ele>
        <time>2019-06-21T09:42:13Z</time>
      </trkpt>
      <trkpt lat="49.68711" lon="4.94347">
        <ele>164.52</ele>
        <time>2019-06-21T09:42:32Z</time>
      </trkpt>
      <trkpt lat="49.68694" lon="4.94348">
        <ele>158.75</ele>
        <time>2019-06-21T09:42:51Z</time>
      </trkpt>
      <trkpt lat="49.68669" lon="4.94351">
        <ele>156.35</ele>
        <time>2019-06-21T09:43:11Z</time>
      </trkpt>
      <trkpt lat="49.68647" lon="4.94356">
        <ele>154.43</ele>
        <time>2019-06-21T09:43:29Z</time>
      </trkpt>
      <trkpt lat="49.68621" lon="4.94363">
        <ele>154.91</ele>
        <time>2019-06-21T09:43:51Z</time>
      </trkpt>
      <trkpt lat="49.68589" lon="4.94372">
        <ele>155.39</ele>
        <time>2019-06-21T09:44:17Z</time>
      </trkpt>
      <trkpt lat="49.6857" lon="4.94367">
        <ele>154.91</ele>
        <time>2019-06-21T09:44:36Z</time>
      </trkpt>
      <trkpt lat="49.68561" lon="4.94361">
        <ele>155.39</ele>
        <time>2019-06-21T09:44:44Z</time>
      </trkpt>
      <trkpt lat="49.68538" lon="4.9438">
        <ele>155.39</ele>
        <time>2019-06-21T09:45:05Z</time>
      </trkpt>
      <trkpt lat="49.68516" lon="4.94393">
        <ele>154.91</ele>
        <time>2019-06-21T09:45:26Z</time>
      </trkpt>
      <trkpt lat="49.68492" lon="4.94407">
        <ele>154.91</ele>
        <time>2019-06-21T09:45:46Z</time>
      </trkpt>
      <trkpt lat="49.68471" lon="4.94417">
        <ele>151.54</ele>
        <time>2019-06-21T09:46:07Z</time>
      </trkpt>
      <trkpt lat="49.68447" lon="4.94424">
        <ele>152.99</ele>
        <time>2019-06-21T09:46:27Z</time>
      </trkpt>
      <trkpt lat="49.68421" lon="4.94435">
        <ele>154.43</ele>
        <time>2019-06-21T09:46:51Z</time>
      </trkpt>
      <trkpt lat="49.68393" lon="4.94442">
        <ele>152.99</ele>
        <time>2019-06-21T09:47:15Z</time>
      </trkpt>
      <trkpt lat="49.68369" lon="4.9445">
        <ele>154.43</ele>
        <time>2019-06-21T09:47:36Z</time>
      </trkpt>
      <trkpt lat="49.6834" lon="4.94457">
        <ele>152.99</ele>
        <time>2019-06-21T09:47:59Z</time>
      </trkpt>
      <trkpt lat="49.68316" lon="4.94462">
        <ele>152.51</ele>
        <time>2019-06-21T09:48:21Z</time>
      </trkpt>
      <trkpt lat="49.68291" lon="4.9447">
        <ele>152.51</ele>
        <time>2019-06-21T09:48:41Z</time>
      </trkpt>
      <trkpt lat="49.68269" lon="4.94474">
        <ele>152.99</ele>
        <time>2019-06-21T09:49:00Z</time>
      </trkpt>
      <trkpt lat="49.68247" lon="4.94481">
        <ele>153.95</ele>
        <time>2019-06-21T09:49:19Z</time>
      </trkpt>
      <trkpt lat="49.68227" lon="4.94487">
        <ele>153.95</ele>
        <time>2019-06-21T09:49:38Z</time>
      </trkpt>
      <trkpt lat="49.68205" lon="4.94495">
        <ele>154.43</ele>
        <time>2019-06-21T09:49:57Z</time>
      </trkpt>
      <trkpt lat="49.68184" lon="4.94501">
        <ele>154.43</ele>
        <time>2019-06-21T09:50:15Z</time>
      </trkpt>
      <trkpt lat="49.68163" lon="4.9451">
        <ele>153.47</ele>
        <time>2019-06-21T09:50:34Z</time>
      </trkpt>
      <trkpt lat="49.68143" lon="4.9452">
        <ele>153.95</ele>
        <time>2019-06-21T09:50:53Z</time>
      </trkpt>
      <trkpt lat="49.68124" lon="4.94529">
        <ele>155.39</ele>
        <time>2019-06-21T09:51:10Z</time>
      </trkpt>
      <trkpt lat="49.68104" lon="4.94537">
        <ele>155.87</ele>
        <time>2019-06-21T09:51:28Z</time>
      </trkpt>
      <trkpt lat="49.68085" lon="4.94554">
        <ele>154.43</ele>
        <time>2019-06-21T09:51:48Z</time>
      </trkpt>
      <trkpt lat="49.68068" lon="4.94568">
        <ele>154.91</ele>
        <time>2019-06-21T09:52:04Z</time>
      </trkpt>
      <trkpt lat="49.6805" lon="4.94582">
        <ele>154.43</ele>
        <time>2019-06-21T09:52:22Z</time>
      </trkpt>
      <trkpt lat="49.68032" lon="4.94597">
        <ele>153.47</ele>
        <time>2019-06-21T09:52:39Z</time>
      </trkpt>
      <trkpt lat="49.68013" lon="4.94611">
        <ele>153.95</ele>
        <time>2019-06-21T09:52:56Z</time>
      </trkpt>
      <trkpt lat="49.68009" lon="4.94615">
        <ele>153.95</ele>
        <time>2019-06-21T09:53:01Z</time>
      </trkpt>
      <trkpt lat="49.67992" lon="4.94629">
        <ele>154.43</ele>
        <time>2019-06-21T09:53:18Z</time>
      </trkpt>
      <trkpt lat="49.67972" lon="4.94642">
        <ele>155.39</ele>
        <time>2019-06-21T09:53:36Z</time>
      </trkpt>
      <trkpt lat="49.67949" lon="4.9465">
        <ele>155.87</ele>
        <time>2019-06-21T09:53:57Z</time>
      </trkpt>
      <trkpt lat="49.67927" lon="4.94656">
        <ele>157.31</ele>
        <time>2019-06-21T09:54:16Z</time>
      </trkpt>
      <trkpt lat="49.67919" lon="4.94656">
        <ele>158.27</ele>
        <time>2019-06-21T09:54:23Z</time>
      </trkpt>
      <trkpt lat="49.67916" lon="4.94657">
        <ele>158.27</ele>
        <time>2019-06-21T09:54:26Z</time>
      </trkpt>
      <trkpt lat="49.67894" lon="4.9466">
        <ele>158.27</ele>
        <time>2019-06-21T09:54:45Z</time>
      </trkpt>
      <trkpt lat="49.67872" lon="4.94659">
        <ele>159.72</ele>
        <time>2019-06-21T09:55:04Z</time>
      </trkpt>
      <trkpt lat="49.6785" lon="4.9466">
        <ele>159.72</ele>
        <time>2019-06-21T09:55:23Z</time>
      </trkpt>
      <trkpt lat="49.67831" lon="4.94659">
        <ele>160.2</ele>
        <time>2019-06-21T09:55:40Z</time>
      </trkpt>
      <trkpt lat="49.67811" lon="4.94662">
        <ele>160.68</ele>
        <time>2019-06-21T09:55:57Z</time>
      </trkpt>
      <trkpt lat="49.67789" lon="4.94666">
        <ele>162.6</ele>
        <time>2019-06-21T09:56:16Z</time>
      </trkpt>
      <trkpt lat="49.67769" lon="4.94669">
        <ele>162.6</ele>
        <time>2019-06-21T09:56:34Z</time>
      </trkpt>
      <trkpt lat="49.67747" lon="4.94672">
        <ele>162.6</ele>
        <time>2019-06-21T09:56:53Z</time>
      </trkpt>
      <trkpt lat="49.67723" lon="4.94673">
        <ele>163.56</ele>
        <time>2019-06-21T09:57:13Z</time>
      </trkpt>
      <trkpt lat="49.67699" lon="4.94674">
        <ele>164.52</ele>
        <time>2019-06-21T09:57:33Z</time>
      </trkpt>
      <trkpt lat="49.67675" lon="4.94672">
        <ele>165.48</ele>
        <time>2019-06-21T09:57:53Z</time>
      </trkpt>
      <trkpt lat="49.67651" lon="4.94673">
        <ele>165.96</ele>
        <time>2019-06-21T09:58:13Z</time>
      </trkpt>
      <trkpt lat="49.67629" lon="4.94682">
        <ele>164.04</ele>
        <time>2019-06-21T09:58:34Z</time>
      </trkpt>
      <trkpt lat="49.67609" lon="4.94688">
        <ele>162.12</ele>
        <time>2019-06-21T09:58:51Z</time>
      </trkpt>
      <trkpt lat="49.6759" lon="4.94693">
        <ele>160.2</ele>
        <time>2019-06-21T09:59:10Z</time>
      </trkpt>
      <trkpt lat="49.67575" lon="4.94694">
        <ele>159.24</ele>
        <time>2019-06-21T09:59:25Z</time>
      </trkpt>
      <trkpt lat="49.67554" lon="4.94695">
        <ele>158.27</ele>
        <time>2019-06-21T09:59:44Z</time>
      </trkpt>
      <trkpt lat="49.67533" lon="4.94699">
        <ele>157.31</ele>
        <time>2019-06-21T10:00:01Z</time>
      </trkpt>
      <trkpt lat="49.6751" lon="4.94709">
        <ele>154.91</ele>
        <time>2019-06-21T10:00:22Z</time>
      </trkpt>
      <trkpt lat="49.67491" lon="4.9472">
        <ele>154.43</ele>
        <time>2019-06-21T10:00:40Z</time>
      </trkpt>
      <trkpt lat="49.67471" lon="4.94729">
        <ele>152.99</ele>
        <time>2019-06-21T10:00:59Z</time>
      </trkpt>
      <trkpt lat="49.67463" lon="4.94733">
        <ele>152.51</ele>
        <time>2019-06-21T10:01:05Z</time>
      </trkpt>
      <trkpt lat="49.67444" lon="4.94743">
        <ele>152.03</ele>
        <time>2019-06-21T10:01:24Z</time>
      </trkpt>
      <trkpt lat="49.67425" lon="4.94755">
        <ele>152.03</ele>
        <time>2019-06-21T10:01:42Z</time>
      </trkpt>
      <trkpt lat="49.67405" lon="4.94771">
        <ele>152.03</ele>
        <time>2019-06-21T10:02:02Z</time>
      </trkpt>
      <trkpt lat="49.67389" lon="4.94787">
        <ele>152.51</ele>
        <time>2019-06-21T10:02:20Z</time>
      </trkpt>
      <trkpt lat="49.67374" lon="4.94807">
        <ele>151.06</ele>
        <time>2019-06-21T10:02:37Z</time>
      </trkpt>
      <trkpt lat="49.67359" lon="4.94831">
        <ele>149.62</ele>
        <time>2019-06-21T10:02:57Z</time>
      </trkpt>
      <trkpt lat="49.67348" lon="4.94862">
        <ele>150.1</ele>
        <time>2019-06-21T10:03:17Z</time>
      </trkpt>
      <trkpt lat="49.67342" lon="4.94891">
        <ele>150.1</ele>
        <time>2019-06-21T10:03:33Z</time>
      </trkpt>
      <trkpt lat="49.67334" lon="4.94925">
        <ele>152.99</ele>
        <time>2019-06-21T10:03:53Z</time>
      </trkpt>
      <trkpt lat="49.67328" lon="4.94954">
        <ele>151.06</ele>
        <time>2019-06-21T10:04:12Z</time>
      </trkpt>
      <trkpt lat="49.6732" lon="4.94982">
        <ele>151.06</ele>
        <time>2019-06-21T10:04:30Z</time>
      </trkpt>
      <trkpt lat="49.67315" lon="4.95015">
        <ele>150.58</ele>
        <time>2019-06-21T10:04:49Z</time>
      </trkpt>
      <trkpt lat="49.67311" lon="4.95049">
        <ele>151.06</ele>
        <time>2019-06-21T10:05:08Z</time>
      </trkpt>
      <trkpt lat="49.67303" lon="4.95088">
        <ele>150.58</ele>
        <time>2019-06-21T10:05:30Z</time>
      </trkpt>
      <trkpt lat="49.67297" lon="4.95123">
        <ele>150.1</ele>
        <time>2019-06-21T10:05:51Z</time>
      </trkpt>
      <trkpt lat="49.67292" lon="4.95151">
        <ele>151.06</ele>
        <time>2019-06-21T10:06:09Z</time>
      </trkpt>
      <trkpt lat="49.67285" lon="4.95182">
        <ele>151.54</ele>
        <time>2019-06-21T10:06:28Z</time>
      </trkpt>
      <trkpt lat="49.67279" lon="4.95213">
        <ele>151.54</ele>
        <time>2019-06-21T10:06:47Z</time>
      </trkpt>
      <trkpt lat="49.6727" lon="4.95248">
        <ele>152.03</ele>
        <time>2019-06-21T10:07:08Z</time>
      </trkpt>
      <trkpt lat="49.67262" lon="4.95279">
        <ele>151.06</ele>
        <time>2019-06-21T10:07:27Z</time>
      </trkpt>
      <trkpt lat="49.67253" lon="4.95312">
        <ele>151.06</ele>
        <time>2019-06-21T10:07:47Z</time>
      </trkpt>
      <trkpt lat="49.67244" lon="4.95343">
        <ele>152.99</ele>
        <time>2019-06-21T10:08:06Z</time>
      </trkpt>
      <trkpt lat="49.67235" lon="4.95375">
        <ele>153.47</ele>
        <time>2019-06-21T10:08:26Z</time>
      </trkpt>
      <trkpt lat="49.67226" lon="4.95405">
        <ele>152.99</ele>
        <time>2019-06-21T10:08:45Z</time>
      </trkpt>
      <trkpt lat="49.67218" lon="4.95436">
        <ele>152.51</ele>
        <time>2019-06-21T10:09:05Z</time>
      </trkpt>
      <trkpt lat="49.67209" lon="4.95468">
        <ele>152.51</ele>
        <time>2019-06-21T10:09:24Z</time>
      </trkpt>
      <trkpt lat="49.67198" lon="4.95497">
        <ele>153.47</ele>
        <time>2019-06-21T10:09:41Z</time>
      </trkpt>
      <trkpt lat="49.67188" lon="4.95523">
        <ele>153.95</ele>
        <time>2019-06-21T10:09:59Z</time>
      </trkpt>
      <trkpt lat="49.67174" lon="4.95554">
        <ele>153.47</ele>
        <time>2019-06-21T10:10:22Z</time>
      </trkpt>
      <trkpt lat="49.6716" lon="4.95581">
        <ele>153.47</ele>
        <time>2019-06-21T10:10:42Z</time>
      </trkpt>
      <trkpt lat="49.67143" lon="4.95602">
        <ele>154.91</ele>
        <time>2019-06-21T10:11:00Z</time>
      </trkpt>
      <trkpt lat="49.67127" lon="4.95619">
        <ele>155.87</ele>
        <time>2019-06-21T10:11:18Z</time>
      </trkpt>
      <trkpt lat="49.67111" lon="4.95632">
        <ele>155.39</ele>
        <time>2019-06-21T10:11:36Z</time>
      </trkpt>
      <trkpt lat="49.67094" lon="4.95645">
        <ele>155.87</ele>
        <time>2019-06-21T10:11:52Z</time>
      </trkpt>
      <trkpt lat="49.67076" lon="4.95659">
        <ele>155.39</ele>
        <time>2019-06-21T10:12:07Z</time>
      </trkpt>
      <trkpt lat="49.67058" lon="4.95677">
        <ele>155.39</ele>
        <time>2019-06-21T10:12:26Z</time>
      </trkpt>
      <trkpt lat="49.6704" lon="4.95696">
        <ele>155.87</ele>
        <time>2019-06-21T10:12:44Z</time>
      </trkpt>
      <trkpt lat="49.67024" lon="4.95718">
        <ele>154.43</ele>
        <time>2019-06-21T10:13:03Z</time>
      </trkpt>
      <trkpt lat="49.67006" lon="4.9574">
        <ele>153.47</ele>
        <time>2019-06-21T10:13:24Z</time>
      </trkpt>
      <trkpt lat="49.66988" lon="4.9576">
        <ele>152.99</ele>
        <time>2019-06-21T10:13:43Z</time>
      </trkpt>
      <trkpt lat="49.6697" lon="4.95785">
        <ele>152.51</ele>
        <time>2019-06-21T10:14:06Z</time>
      </trkpt>
      <trkpt lat="49.66957" lon="4.95806">
        <ele>152.99</ele>
        <time>2019-06-21T10:14:23Z</time>
      </trkpt>
      <trkpt lat="49.66954" lon="4.95809">
        <ele>153.47</ele>
        <time>2019-06-21T10:14:26Z</time>
      </trkpt>
      <trkpt lat="49.66939" lon="4.95832">
        <ele>153.47</ele>
        <time>2019-06-21T10:14:46Z</time>
      </trkpt>
      <trkpt lat="49.66923" lon="4.95854">
        <ele>151.54</ele>
        <time>2019-06-21T10:15:05Z</time>
      </trkpt>
      <trkpt lat="49.66919" lon="4.95869">
        <ele>151.54</ele>
        <time>2019-06-21T10:15:15Z</time>
      </trkpt>
      <trkpt lat="49.66914" lon="4.95877">
        <ele>152.51</ele>
        <time>2019-06-21T10:15:22Z</time>
      </trkpt>
      <trkpt lat="49.66907" lon="4.95882">
        <ele>152.51</ele>
        <time>2019-06-21T10:15:29Z</time>
      </trkpt>
      <trkpt lat="49.66904" lon="4.9589">
        <ele>152.99</ele>
        <time>2019-06-21T10:15:34Z</time>
      </trkpt>
      <trkpt lat="49.66892" lon="4.95921">
        <ele>155.39</ele>
        <time>2019-06-21T10:15:53Z</time>
      </trkpt>
      <trkpt lat="49.66882" lon="4.95947">
        <ele>155.87</ele>
        <time>2019-06-21T10:16:11Z</time>
      </trkpt>
      <trkpt lat="49.66872" lon="4.95973">
        <ele>155.39</ele>
        <time>2019-06-21T10:16:27Z</time>
      </trkpt>
      <trkpt lat="49.66861" lon="4.96001">
        <ele>153.95</ele>
        <time>2019-06-21T10:16:44Z</time>
      </trkpt>
      <trkpt lat="49.66848" lon="4.96033">
        <ele>155.39</ele>
        <time>2019-06-21T10:17:06Z</time>
      </trkpt>
      <trkpt lat="49.66839" lon="4.96054">
        <ele>154.43</ele>
        <time>2019-06-21T10:17:20Z</time>
      </trkpt>
      <trkpt lat="49.66829" lon="4.96079">
        <ele>153.47</ele>
        <time>2019-06-21T10:17:38Z</time>
      </trkpt>
      <trkpt lat="49.66819" lon="4.96103">
        <ele>152.99</ele>
        <time>2019-06-21T10:17:54Z</time>
      </trkpt>
      <trkpt lat="49.66808" lon="4.96131">
        <ele>152.51</ele>
        <time>2019-06-21T10:18:11Z</time>
      </trkpt>
      <trkpt lat="49.66802" lon="4.96149">
        <ele>150.58</ele>
        <time>2019-06-21T10:18:25Z</time>
      </trkpt>
      <trkpt lat="49.66802" lon="4.9615">
        <ele>150.58</ele>
        <time>2019-06-21T10:18:27Z</time>
      </trkpt>
      <trkpt lat="49.66795" lon="4.96173">
        <ele>151.06</ele>
        <time>2019-06-21T10:18:41Z</time>
      </trkpt>
      <trkpt lat="49.66789" lon="4.96198">
        <ele>151.54</ele>
        <time>2019-06-21T10:18:56Z</time>
      </trkpt>
      <trkpt lat="49.66781" lon="4.96224">
        <ele>150.1</ele>
        <time>2019-06-21T10:19:13Z</time>
      </trkpt>
      <trkpt lat="49.66773" lon="4.96255">
        <ele>148.66</ele>
        <time>2019-06-21T10:19:32Z</time>
      </trkpt>
      <trkpt lat="49.66768" lon="4.96285">
        <ele>149.62</ele>
        <time>2019-06-21T10:19:49Z</time>
      </trkpt>
      <trkpt lat="49.66767" lon="4.9632">
        <ele>152.03</ele>
        <time>2019-06-21T10:20:09Z</time>
      </trkpt>
      <trkpt lat="49.66767" lon="4.96349">
        <ele>153.47</ele>
        <time>2019-06-21T10:20:26Z</time>
      </trkpt>
      <trkpt lat="49.6677" lon="4.96386">
        <ele>153.47</ele>
        <time>2019-06-21T10:20:45Z</time>
      </trkpt>
      <trkpt lat="49.66779" lon="4.96416">
        <ele>152.99</ele>
        <time>2019-06-21T10:21:05Z</time>
      </trkpt>
      <trkpt lat="49.66785" lon="4.96455">
        <ele>151.06</ele>
        <time>2019-06-21T10:21:27Z</time>
      </trkpt>
      <trkpt lat="49.66791" lon="4.96487">
        <ele>150.58</ele>
        <time>2019-06-21T10:21:46Z</time>
      </trkpt>
      <trkpt lat="49.66796" lon="4.96509">
        <ele>150.1</ele>
        <time>2019-06-21T10:22:01Z</time>
      </trkpt>
      <trkpt lat="49.66803" lon="4.96541">
        <ele>149.62</ele>
        <time>2019-06-21T10:22:20Z</time>
      </trkpt>
      <trkpt lat="49.66808" lon="4.96576">
        <ele>152.51</ele>
        <time>2019-06-21T10:22:39Z</time>
      </trkpt>
      <trkpt lat="49.66813" lon="4.96603">
        <ele>152.51</ele>
        <time>2019-06-21T10:22:56Z</time>
      </trkpt>
      <trkpt lat="49.66817" lon="4.96624">
        <ele>147.7</ele>
        <time>2019-06-21T10:23:10Z</time>
      </trkpt>
      <trkpt lat="49.6682" lon="4.96634">
        <ele>146.74</ele>
        <time>2019-06-21T10:23:17Z</time>
      </trkpt>
      <trkpt lat="49.66823" lon="4.96667">
        <ele>147.22</ele>
        <time>2019-06-21T10:23:35Z</time>
      </trkpt>
      <trkpt lat="49.66826" lon="4.96696">
        <ele>147.22</ele>
        <time>2019-06-21T10:23:51Z</time>
      </trkpt>
      <trkpt lat="49.66828" lon="4.96729">
        <ele>149.14</ele>
        <time>2019-06-21T10:24:09Z</time>
      </trkpt>
      <trkpt lat="49.66827" lon="4.96765">
        <ele>152.51</ele>
        <time>2019-06-21T10:24:29Z</time>
      </trkpt>
      <trkpt lat="49.66823" lon="4.968">
        <ele>153.47</ele>
        <time>2019-06-21T10:24:47Z</time>
      </trkpt>
      <trkpt lat="49.66821" lon="4.96809">
        <ele>152.99</ele>
        <time>2019-06-21T10:24:54Z</time>
      </trkpt>
      <trkpt lat="49.66811" lon="4.96839">
        <ele>152.99</ele>
        <time>2019-06-21T10:25:13Z</time>
      </trkpt>
      <trkpt lat="49.6681" lon="4.96844">
        <ele>152.99</ele>
        <time>2019-06-21T10:25:16Z</time>
      </trkpt>
      <trkpt lat="49.668" lon="4.96866">
        <ele>151.54</ele>
        <time>2019-06-21T10:25:32Z</time>
      </trkpt>
      <trkpt lat="49.66791" lon="4.96891">
        <ele>151.06</ele>
        <time>2019-06-21T10:25:49Z</time>
      </trkpt>
      <trkpt lat="49.66779" lon="4.9691">
        <ele>149.62</ele>
        <time>2019-06-21T10:26:05Z</time>
      </trkpt>
      <trkpt lat="49.66764" lon="4.96931">
        <ele>146.74</ele>
        <time>2019-06-21T10:26:23Z</time>
      </trkpt>
      <trkpt lat="49.66751" lon="4.96952">
        <ele>148.18</ele>
        <time>2019-06-21T10:26:39Z</time>
      </trkpt>
      <trkpt lat="49.66739" lon="4.96971">
        <ele>148.18</ele>
        <time>2019-06-21T10:26:53Z</time>
      </trkpt>
      <trkpt lat="49.66733" lon="4.96982">
        <ele>148.18</ele>
        <time>2019-06-21T10:27:02Z</time>
      </trkpt>
      <trkpt lat="49.6672" lon="4.97001">
        <ele>148.18</ele>
        <time>2019-06-21T10:27:18Z</time>
      </trkpt>
      <trkpt lat="49.66705" lon="4.97023">
        <ele>149.14</ele>
        <time>2019-06-21T10:27:35Z</time>
      </trkpt>
      <trkpt lat="49.66694" lon="4.97042">
        <ele>149.14</ele>
        <time>2019-06-21T10:27:50Z</time>
      </trkpt>
      <trkpt lat="49.66682" lon="4.97066">
        <ele>150.1</ele>
        <time>2019-06-21T10:28:07Z</time>
      </trkpt>
      <trkpt lat="49.66671" lon="4.97095">
        <ele>151.54</ele>
        <time>2019-06-21T10:28:26Z</time>
      </trkpt>
      <trkpt lat="49.66661" lon="4.97125">
        <ele>152.03</ele>
        <time>2019-06-21T10:28:44Z</time>
      </trkpt>
      <trkpt lat="49.66653" lon="4.97155">
        <ele>154.91</ele>
        <time>2019-06-21T10:29:03Z</time>
      </trkpt>
      <trkpt lat="49.66644" lon="4.97185">
        <ele>155.87</ele>
        <time>2019-06-21T10:29:22Z</time>
      </trkpt>
      <trkpt lat="49.66634" lon="4.97216">
        <ele>156.83</ele>
        <time>2019-06-21T10:29:41Z</time>
      </trkpt>
      <trkpt lat="49.66625" lon="4.97245">
        <ele>156.83</ele>
        <time>2019-06-21T10:29:59Z</time>
      </trkpt>
      <trkpt lat="49.66616" lon="4.97266">
        <ele>157.31</ele>
        <time>2019-06-21T10:30:14Z</time>
      </trkpt>
      <trkpt lat="49.66615" lon="4.97269">
        <ele>157.79</ele>
        <time>2019-06-21T10:30:16Z</time>
      </trkpt>
      <trkpt lat="49.66601" lon="4.97296">
        <ele>158.27</ele>
        <time>2019-06-21T10:30:35Z</time>
      </trkpt>
      <trkpt lat="49.6659" lon="4.97316">
        <ele>157.31</ele>
        <time>2019-06-21T10:30:51Z</time>
      </trkpt>
      <trkpt lat="49.66578" lon="4.97339">
        <ele>155.39</ele>
        <time>2019-06-21T10:31:08Z</time>
      </trkpt>
      <trkpt lat="49.66568" lon="4.97358">
        <ele>153.95</ele>
        <time>2019-06-21T10:31:23Z</time>
      </trkpt>
      <trkpt lat="49.66557" lon="4.97374">
        <ele>152.51</ele>
        <time>2019-06-21T10:31:36Z</time>
      </trkpt>
      <trkpt lat="49.66543" lon="4.97399">
        <ele>154.43</ele>
        <time>2019-06-21T10:31:55Z</time>
      </trkpt>
      <trkpt lat="49.66531" lon="4.9742">
        <ele>159.24</ele>
        <time>2019-06-21T10:32:12Z</time>
      </trkpt>
      <trkpt lat="49.66522" lon="4.97452">
        <ele>164.52</ele>
        <time>2019-06-21T10:32:31Z</time>
      </trkpt>
      <trkpt lat="49.66521" lon="4.97455">
        <ele>164.52</ele>
        <time>2019-06-21T10:32:33Z</time>
      </trkpt>
      <trkpt lat="49.66507" lon="4.97483">
        <ele>164.52</ele>
        <time>2019-06-21T10:32:53Z</time>
      </trkpt>
      <trkpt lat="49.66497" lon="4.97502">
        <ele>166.93</ele>
        <time>2019-06-21T10:33:08Z</time>
      </trkpt>
      <trkpt lat="49.66494" lon="4.97507">
        <ele>167.41</ele>
        <time>2019-06-21T10:33:12Z</time>
      </trkpt>
      <trkpt lat="49.66483" lon="4.97528">
        <ele>168.85</ele>
        <time>2019-06-21T10:33:29Z</time>
      </trkpt>
      <trkpt lat="49.66473" lon="4.97527">
        <ele>168.37</ele>
        <time>2019-06-21T10:33:45Z</time>
      </trkpt>
      <trkpt lat="49.66473" lon="4.97527">
        <ele>165.96</ele>
        <time>2019-06-21T10:34:07Z</time>
      </trkpt>
      <trkpt lat="49.66471" lon="4.9753">
        <ele>165</ele>
        <time>2019-06-21T10:34:37Z</time>
      </trkpt>
      <trkpt lat="49.66473" lon="4.9753">
        <ele>159.24</ele>
        <time>2019-06-21T10:35:14Z</time>
      </trkpt>
      <trkpt lat="49.66473" lon="4.9753">
        <ele>158.27</ele>
        <time>2019-06-21T10:35:46Z</time>
      </trkpt>
      <trkpt lat="49.66474" lon="4.9753">
        <ele>156.83</ele>
        <time>2019-06-21T10:36:22Z</time>
      </trkpt>
      <trkpt lat="49.66474" lon="4.97531">
        <ele>156.35</ele>
        <time>2019-06-21T10:37:03Z</time>
      </trkpt>
      <trkpt lat="49.66474" lon="4.97531">
        <ele>155.87</ele>
        <time>2019-06-21T10:37:40Z</time>
      </trkpt>
      <trkpt lat="49.66473" lon="4.97531">
        <ele>155.87</ele>
        <time>2019-06-21T10:38:19Z</time>
      </trkpt>
      <trkpt lat="49.66474" lon="4.97531">
        <ele>155.87</ele>
        <time>2019-06-21T10:39:04Z</time>
      </trkpt>
      <trkpt lat="49.66474" lon="4.97531">
        <ele>154.91</ele>
        <time>2019-06-21T10:39:42Z</time>
      </trkpt>
      <trkpt lat="49.66474" lon="4.97531">
        <ele>153.95</ele>
        <time>2019-06-21T10:40:21Z</time>
      </trkpt>
      <trkpt lat="49.66475" lon="4.97532">
        <ele>152.99</ele>
        <time>2019-06-21T10:41:03Z</time>
      </trkpt>
      <trkpt lat="49.66475" lon="4.97533">
        <ele>152.51</ele>
        <time>2019-06-21T10:41:49Z</time>
      </trkpt>
      <trkpt lat="49.66474" lon="4.97531">
        <ele>152.51</ele>
        <time>2019-06-21T10:42:14Z</time>
      </trkpt>
      <trkpt lat="49.66476" lon="4.97535">
        <ele>152.99</ele>
        <time>2019-06-21T10:42:31Z</time>
      </trkpt>
      <trkpt lat="49.66468" lon="4.9755">
        <ele>152.99</ele>
        <time>2019-06-21T10:42:47Z</time>
      </trkpt>
      <trkpt lat="49.66454" lon="4.97577">
        <ele>154.91</ele>
        <time>2019-06-21T10:43:07Z</time>
      </trkpt>
      <trkpt lat="49.66442" lon="4.97603">
        <ele>156.35</ele>
        <time>2019-06-21T10:43:27Z</time>
      </trkpt>
      <trkpt lat="49.66429" lon="4.9763">
        <ele>157.79</ele>
        <time>2019-06-21T10:43:45Z</time>
      </trkpt>
      <trkpt lat="49.66414" lon="4.97661">
        <ele>157.79</ele>
        <time>2019-06-21T10:44:06Z</time>
      </trkpt>
      <trkpt lat="49.664" lon="4.97691">
        <ele>156.35</ele>
        <time>2019-06-21T10:44:27Z</time>
      </trkpt>
      <trkpt lat="49.66385" lon="4.9772">
        <ele>156.83</ele>
        <time>2019-06-21T10:44:48Z</time>
      </trkpt>
      <trkpt lat="49.6637" lon="4.97745">
        <ele>156.83</ele>
        <time>2019-06-21T10:45:08Z</time>
      </trkpt>
      <trkpt lat="49.66355" lon="4.97774">
        <ele>155.87</ele>
        <time>2019-06-21T10:45:29Z</time>
      </trkpt>
      <trkpt lat="49.66341" lon="4.97807">
        <ele>155.87</ele>
        <time>2019-06-21T10:45:51Z</time>
      </trkpt>
      <trkpt lat="49.66325" lon="4.97833">
        <ele>153.95</ele>
        <time>2019-06-21T10:46:11Z</time>
      </trkpt>
      <trkpt lat="49.6631" lon="4.97862">
        <ele>152.99</ele>
        <time>2019-06-21T10:46:32Z</time>
      </trkpt>
      <trkpt lat="49.66292" lon="4.97893">
        <ele>152.03</ele>
        <time>2019-06-21T10:46:57Z</time>
      </trkpt>
      <trkpt lat="49.66278" lon="4.9792">
        <ele>151.06</ele>
        <time>2019-06-21T10:47:17Z</time>
      </trkpt>
      <trkpt lat="49.66262" lon="4.97949">
        <ele>151.54</ele>
        <time>2019-06-21T10:47:38Z</time>
      </trkpt>
      <trkpt lat="49.6625" lon="4.97977">
        <ele>150.1</ele>
        <time>2019-06-21T10:47:57Z</time>
      </trkpt>
      <trkpt lat="49.66234" lon="4.98007">
        <ele>151.06</ele>
        <time>2019-06-21T10:48:19Z</time>
      </trkpt>
      <trkpt lat="49.6622" lon="4.98034">
        <ele>151.06</ele>
        <time>2019-06-21T10:48:39Z</time>
      </trkpt>
      <trkpt lat="49.66207" lon="4.9806">
        <ele>150.58</ele>
        <time>2019-06-21T10:48:58Z</time>
      </trkpt>
      <trkpt lat="49.66191" lon="4.98086">
        <ele>151.06</ele>
        <time>2019-06-21T10:49:19Z</time>
      </trkpt>
      <trkpt lat="49.66178" lon="4.98108">
        <ele>149.62</ele>
        <time>2019-06-21T10:49:36Z</time>
      </trkpt>
      <trkpt lat="49.66161" lon="4.98141">
        <ele>149.62</ele>
        <time>2019-06-21T10:49:59Z</time>
      </trkpt>
      <trkpt lat="49.66154" lon="4.98154">
        <ele>149.14</ele>
        <time>2019-06-21T10:50:11Z</time>
      </trkpt>
      <trkpt lat="49.66141" lon="4.98179">
        <ele>149.14</ele>
        <time>2019-06-21T10:50:29Z</time>
      </trkpt>
      <trkpt lat="49.66127" lon="4.98207">
        <ele>148.66</ele>
        <time>2019-06-21T10:50:49Z</time>
      </trkpt>
      <trkpt lat="49.66114" lon="4.98231">
        <ele>147.22</ele>
        <time>2019-06-21T10:51:08Z</time>
      </trkpt>
      <trkpt lat="49.66103" lon="4.98253">
        <ele>148.66</ele>
        <time>2019-06-21T10:51:24Z</time>
      </trkpt>
      <trkpt lat="49.6609" lon="4.98276">
        <ele>149.14</ele>
        <time>2019-06-21T10:51:41Z</time>
      </trkpt>
      <trkpt lat="49.66075" lon="4.98304">
        <ele>148.18</ele>
        <time>2019-06-21T10:52:02Z</time>
      </trkpt>
      <trkpt lat="49.66061" lon="4.98333">
        <ele>147.7</ele>
        <time>2019-06-21T10:52:23Z</time>
      </trkpt>
      <trkpt lat="49.66045" lon="4.98363">
        <ele>146.26</ele>
        <time>2019-06-21T10:52:45Z</time>
      </trkpt>
      <trkpt lat="49.6603" lon="4.98389">
        <ele>144.34</ele>
        <time>2019-06-21T10:53:03Z</time>
      </trkpt>
      <trkpt lat="49.66016" lon="4.98417">
        <ele>146.74</ele>
        <time>2019-06-21T10:53:22Z</time>
      </trkpt>
      <trkpt lat="49.66001" lon="4.98444">
        <ele>147.7</ele>
        <time>2019-06-21T10:53:42Z</time>
      </trkpt>
      <trkpt lat="49.65984" lon="4.98472">
        <ele>150.1</ele>
        <time>2019-06-21T10:54:03Z</time>
      </trkpt>
      <trkpt lat="49.6597" lon="4.98497">
        <ele>153.95</ele>
        <time>2019-06-21T10:54:23Z</time>
      </trkpt>
      <trkpt lat="49.65965" lon="4.98509">
        <ele>155.87</ele>
        <time>2019-06-21T10:54:41Z</time>
      </trkpt>
      <trkpt lat="49.65955" lon="4.9853">
        <ele>155.39</ele>
        <time>2019-06-21T10:54:58Z</time>
      </trkpt>
      <trkpt lat="49.65943" lon="4.98553">
        <ele>154.43</ele>
        <time>2019-06-21T10:55:14Z</time>
      </trkpt>
      <trkpt lat="49.65933" lon="4.9858">
        <ele>151.06</ele>
        <time>2019-06-21T10:55:33Z</time>
      </trkpt>
      <trkpt lat="49.65919" lon="4.98604">
        <ele>147.7</ele>
        <time>2019-06-21T10:55:53Z</time>
      </trkpt>
      <trkpt lat="49.65903" lon="4.9863">
        <ele>146.74</ele>
        <time>2019-06-21T10:56:13Z</time>
      </trkpt>
      <trkpt lat="49.65889" lon="4.98656">
        <ele>147.7</ele>
        <time>2019-06-21T10:56:32Z</time>
      </trkpt>
      <trkpt lat="49.65874" lon="4.98689">
        <ele>151.54</ele>
        <time>2019-06-21T10:56:54Z</time>
      </trkpt>
      <trkpt lat="49.65859" lon="4.98718">
        <ele>149.14</ele>
        <time>2019-06-21T10:57:14Z</time>
      </trkpt>
      <trkpt lat="49.65846" lon="4.98745">
        <ele>148.66</ele>
        <time>2019-06-21T10:57:32Z</time>
      </trkpt>
      <trkpt lat="49.65831" lon="4.98771">
        <ele>149.14</ele>
        <time>2019-06-21T10:57:51Z</time>
      </trkpt>
      <trkpt lat="49.65816" lon="4.98801">
        <ele>149.62</ele>
        <time>2019-06-21T10:58:13Z</time>
      </trkpt>
      <trkpt lat="49.65804" lon="4.98826">
        <ele>152.03</ele>
        <time>2019-06-21T10:58:31Z</time>
      </trkpt>
      <trkpt lat="49.65789" lon="4.98851">
        <ele>150.58</ele>
        <time>2019-06-21T10:58:52Z</time>
      </trkpt>
      <trkpt lat="49.65786" lon="4.98857">
        <ele>150.58</ele>
        <time>2019-06-21T10:58:56Z</time>
      </trkpt>
      <trkpt lat="49.6577" lon="4.98886">
        <ele>151.06</ele>
        <time>2019-06-21T10:59:19Z</time>
      </trkpt>
      <trkpt lat="49.65756" lon="4.98912">
        <ele>151.06</ele>
        <time>2019-06-21T10:59:37Z</time>
      </trkpt>
      <trkpt lat="49.65743" lon="4.98938">
        <ele>151.06</ele>
        <time>2019-06-21T10:59:58Z</time>
      </trkpt>
      <trkpt lat="49.65739" lon="4.98944">
        <ele>151.54</ele>
        <time>2019-06-21T11:00:03Z</time>
      </trkpt>
      <trkpt lat="49.65723" lon="4.98971">
        <ele>150.58</ele>
        <time>2019-06-21T11:00:23Z</time>
      </trkpt>
      <trkpt lat="49.65709" lon="4.98994">
        <ele>151.06</ele>
        <time>2019-06-21T11:00:42Z</time>
      </trkpt>
      <trkpt lat="49.65696" lon="4.99017">
        <ele>152.03</ele>
        <time>2019-06-21T11:00:59Z</time>
      </trkpt>
      <trkpt lat="49.65683" lon="4.9904">
        <ele>152.99</ele>
        <time>2019-06-21T11:01:18Z</time>
      </trkpt>
      <trkpt lat="49.65668" lon="4.99065">
        <ele>154.91</ele>
        <time>2019-06-21T11:01:37Z</time>
      </trkpt>
      <trkpt lat="49.65651" lon="4.99093">
        <ele>154.91</ele>
        <time>2019-06-21T11:01:59Z</time>
      </trkpt>
      <trkpt lat="49.65635" lon="4.99118">
        <ele>154.43</ele>
        <time>2019-06-21T11:02:19Z</time>
      </trkpt>
      <trkpt lat="49.65622" lon="4.99141">
        <ele>150.58</ele>
        <time>2019-06-21T11:02:36Z</time>
      </trkpt>
      <trkpt lat="49.65609" lon="4.99165">
        <ele>150.1</ele>
        <time>2019-06-21T11:02:54Z</time>
      </trkpt>
      <trkpt lat="49.65592" lon="4.99193">
        <ele>151.54</ele>
        <time>2019-06-21T11:03:17Z</time>
      </trkpt>
      <trkpt lat="49.65576" lon="4.99224">
        <ele>150.58</ele>
        <time>2019-06-21T11:03:39Z</time>
      </trkpt>
      <trkpt lat="49.65566" lon="4.99243">
        <ele>150.58</ele>
        <time>2019-06-21T11:03:59Z</time>
      </trkpt>
      <trkpt lat="49.6556" lon="4.99236">
        <ele>152.03</ele>
        <time>2019-06-21T11:04:17Z</time>
      </trkpt>
      <trkpt lat="49.6555" lon="4.99224">
        <ele>153.47</ele>
        <time>2019-06-21T11:04:29Z</time>
      </trkpt>
      <trkpt lat="49.65531" lon="4.9921">
        <ele>156.35</ele>
        <time>2019-06-21T11:04:48Z</time>
      </trkpt>
      <trkpt lat="49.65515" lon="4.99201">
        <ele>157.79</ele>
        <time>2019-06-21T11:05:04Z</time>
      </trkpt>
      <trkpt lat="49.65498" lon="4.99193">
        <ele>157.31</ele>
        <time>2019-06-21T11:05:21Z</time>
      </trkpt>
      <trkpt lat="49.65494" lon="4.99201">
        <ele>157.79</ele>
        <time>2019-06-21T11:05:26Z</time>
      </trkpt>
      <trkpt lat="49.65483" lon="4.99235">
        <ele>157.31</ele>
        <time>2019-06-21T11:05:46Z</time>
      </trkpt>
      <trkpt lat="49.65474" lon="4.99261">
        <ele>154.43</ele>
        <time>2019-06-21T11:06:03Z</time>
      </trkpt>
      <trkpt lat="49.65455" lon="4.99279">
        <ele>154.91</ele>
        <time>2019-06-21T11:06:21Z</time>
      </trkpt>
      <trkpt lat="49.65442" lon="4.99268">
        <ele>154.91</ele>
        <time>2019-06-21T11:06:38Z</time>
      </trkpt>
      <trkpt lat="49.65429" lon="4.99245">
        <ele>155.39</ele>
        <time>2019-06-21T11:06:55Z</time>
      </trkpt>
      <trkpt lat="49.65416" lon="4.99226">
        <ele>150.58</ele>
        <time>2019-06-21T11:07:10Z</time>
      </trkpt>
      <trkpt lat="49.65399" lon="4.99198">
        <ele>151.06</ele>
        <time>2019-06-21T11:07:31Z</time>
      </trkpt>
      <trkpt lat="49.65388" lon="4.99187">
        <ele>152.99</ele>
        <time>2019-06-21T11:07:42Z</time>
      </trkpt>
      <trkpt lat="49.65375" lon="4.99192">
        <ele>155.87</ele>
        <time>2019-06-21T11:07:55Z</time>
      </trkpt>
      <trkpt lat="49.65374" lon="4.99191">
        <ele>156.35</ele>
        <time>2019-06-21T11:07:56Z</time>
      </trkpt>
      <trkpt lat="49.65372" lon="4.99172">
        <ele>155.87</ele>
        <time>2019-06-21T11:08:10Z</time>
      </trkpt>
      <trkpt lat="49.6536" lon="4.99149">
        <ele>156.83</ele>
        <time>2019-06-21T11:08:28Z</time>
      </trkpt>
      <trkpt lat="49.65346" lon="4.99123">
        <ele>158.27</ele>
        <time>2019-06-21T11:08:46Z</time>
      </trkpt>
      <trkpt lat="49.65332" lon="4.99091">
        <ele>156.83</ele>
        <time>2019-06-21T11:09:07Z</time>
      </trkpt>
      <trkpt lat="49.65322" lon="4.99061">
        <ele>156.35</ele>
        <time>2019-06-21T11:09:26Z</time>
      </trkpt>
      <trkpt lat="49.65307" lon="4.99036">
        <ele>155.87</ele>
        <time>2019-06-21T11:09:43Z</time>
      </trkpt>
      <trkpt lat="49.65292" lon="4.99016">
        <ele>154.91</ele>
        <time>2019-06-21T11:10:01Z</time>
      </trkpt>
      <trkpt lat="49.65276" lon="4.99">
        <ele>152.51</ele>
        <time>2019-06-21T11:10:18Z</time>
      </trkpt>
      <trkpt lat="49.65254" lon="4.98985">
        <ele>151.06</ele>
        <time>2019-06-21T11:10:37Z</time>
      </trkpt>
      <trkpt lat="49.65233" lon="4.98967">
        <ele>154.43</ele>
        <time>2019-06-21T11:10:58Z</time>
      </trkpt>
      <trkpt lat="49.65215" lon="4.9895">
        <ele>156.35</ele>
        <time>2019-06-21T11:11:17Z</time>
      </trkpt>
      <trkpt lat="49.65196" lon="4.98932">
        <ele>157.31</ele>
        <time>2019-06-21T11:11:35Z</time>
      </trkpt>
      <trkpt lat="49.65174" lon="4.98912">
        <ele>158.75</ele>
        <time>2019-06-21T11:11:58Z</time>
      </trkpt>
      <trkpt lat="49.65154" lon="4.98896">
        <ele>159.24</ele>
        <time>2019-06-21T11:12:17Z</time>
      </trkpt>
      <trkpt lat="49.65138" lon="4.98882">
        <ele>156.83</ele>
        <time>2019-06-21T11:12:32Z</time>
      </trkpt>
      <trkpt lat="49.65119" lon="4.98864">
        <ele>156.35</ele>
        <time>2019-06-21T11:12:53Z</time>
      </trkpt>
      <trkpt lat="49.65099" lon="4.98845">
        <ele>156.35</ele>
        <time>2019-06-21T11:13:13Z</time>
      </trkpt>
      <trkpt lat="49.65097" lon="4.98841">
        <ele>155.87</ele>
        <time>2019-06-21T11:13:16Z</time>
      </trkpt>
      <trkpt lat="49.65077" lon="4.98818">
        <ele>155.87</ele>
        <time>2019-06-21T11:13:35Z</time>
      </trkpt>
      <trkpt lat="49.65057" lon="4.98798">
        <ele>155.87</ele>
        <time>2019-06-21T11:13:56Z</time>
      </trkpt>
      <trkpt lat="49.65037" lon="4.9878">
        <ele>157.31</ele>
        <time>2019-06-21T11:14:16Z</time>
      </trkpt>
      <trkpt lat="49.65017" lon="4.98762">
        <ele>158.75</ele>
        <time>2019-06-21T11:14:37Z</time>
      </trkpt>
      <trkpt lat="49.64996" lon="4.98741">
        <ele>157.79</ele>
        <time>2019-06-21T11:14:54Z</time>
      </trkpt>
      <trkpt lat="49.64979" lon="4.98726">
        <ele>160.2</ele>
        <time>2019-06-21T11:15:11Z</time>
      </trkpt>
      <trkpt lat="49.6497" lon="4.98719">
        <ele>158.27</ele>
        <time>2019-06-21T11:15:24Z</time>
      </trkpt>
      <trkpt lat="49.64971" lon="4.9872">
        <ele>158.75</ele>
        <time>2019-06-21T11:15:48Z</time>
      </trkpt>
      <trkpt lat="49.64971" lon="4.9872">
        <ele>159.24</ele>
        <time>2019-06-21T11:16:13Z</time>
      </trkpt>
      <trkpt lat="49.64971" lon="4.98721">
        <ele>159.72</ele>
        <time>2019-06-21T11:16:36Z</time>
      </trkpt>
      <trkpt lat="49.64972" lon="4.98722">
        <ele>159.24</ele>
        <time>2019-06-21T11:16:51Z</time>
      </trkpt>
      <trkpt lat="49.6497" lon="4.9872">
        <ele>159.24</ele>
        <time>2019-06-21T11:16:54Z</time>
      </trkpt>
      <trkpt lat="49.64965" lon="4.98716">
        <ele>159.24</ele>
        <time>2019-06-21T11:16:58Z</time>
      </trkpt>
      <trkpt lat="49.64943" lon="4.98693">
        <ele>160.68</ele>
        <time>2019-06-21T11:17:17Z</time>
      </trkpt>
      <trkpt lat="49.64919" lon="4.9868">
        <ele>161.16</ele>
        <time>2019-06-21T11:17:41Z</time>
      </trkpt>
      <trkpt lat="49.64901" lon="4.98672">
        <ele>159.72</ele>
        <time>2019-06-21T11:17:57Z</time>
      </trkpt>
      <trkpt lat="49.64881" lon="4.98656">
        <ele>159.24</ele>
        <time>2019-06-21T11:18:17Z</time>
      </trkpt>
      <trkpt lat="49.6486" lon="4.98641">
        <ele>161.16</ele>
        <time>2019-06-21T11:18:34Z</time>
      </trkpt>
      <trkpt lat="49.64841" lon="4.98627">
        <ele>160.2</ele>
        <time>2019-06-21T11:18:53Z</time>
      </trkpt>
      <trkpt lat="49.64821" lon="4.98616">
        <ele>161.64</ele>
        <time>2019-06-21T11:19:12Z</time>
      </trkpt>
      <trkpt lat="49.64803" lon="4.98603">
        <ele>162.12</ele>
        <time>2019-06-21T11:19:28Z</time>
      </trkpt>
      <trkpt lat="49.64785" lon="4.98594">
        <ele>162.6</ele>
        <time>2019-06-21T11:19:45Z</time>
      </trkpt>
      <trkpt lat="49.64766" lon="4.98583">
        <ele>164.52</ele>
        <time>2019-06-21T11:20:04Z</time>
      </trkpt>
      <trkpt lat="49.64746" lon="4.98571">
        <ele>165.96</ele>
        <time>2019-06-21T11:20:23Z</time>
      </trkpt>
      <trkpt lat="49.64724" lon="4.98558">
        <ele>164.04</ele>
        <time>2019-06-21T11:20:42Z</time>
      </trkpt>
      <trkpt lat="49.647" lon="4.98545">
        <ele>162.12</ele>
        <time>2019-06-21T11:21:03Z</time>
      </trkpt>
      <trkpt lat="49.6468" lon="4.98536">
        <ele>160.68</ele>
        <time>2019-06-21T11:21:21Z</time>
      </trkpt>
      <trkpt lat="49.64663" lon="4.98527">
        <ele>160.68</ele>
        <time>2019-06-21T11:21:37Z</time>
      </trkpt>
      <trkpt lat="49.64643" lon="4.98516">
        <ele>162.6</ele>
        <time>2019-06-21T11:21:55Z</time>
      </trkpt>
      <trkpt lat="49.64626" lon="4.98509">
        <ele>163.56</ele>
        <time>2019-06-21T11:22:11Z</time>
      </trkpt>
      <trkpt lat="49.64607" lon="4.98498">
        <ele>164.04</ele>
        <time>2019-06-21T11:22:28Z</time>
      </trkpt>
      <trkpt lat="49.6459" lon="4.98489">
        <ele>162.6</ele>
        <time>2019-06-21T11:22:44Z</time>
      </trkpt>
      <trkpt lat="49.6457" lon="4.98476">
        <ele>161.16</ele>
        <time>2019-06-21T11:23:03Z</time>
      </trkpt>
      <trkpt lat="49.64551" lon="4.98464">
        <ele>161.16</ele>
        <time>2019-06-21T11:23:22Z</time>
      </trkpt>
      <trkpt lat="49.64529" lon="4.98453">
        <ele>162.12</ele>
        <time>2019-06-21T11:23:41Z</time>
      </trkpt>
      <trkpt lat="49.64512" lon="4.98443">
        <ele>159.24</ele>
        <time>2019-06-21T11:23:57Z</time>
      </trkpt>
      <trkpt lat="49.64494" lon="4.98433">
        <ele>160.2</ele>
        <time>2019-06-21T11:24:16Z</time>
      </trkpt>
      <trkpt lat="49.64479" lon="4.98422">
        <ele>161.16</ele>
        <time>2019-06-21T11:24:31Z</time>
      </trkpt>
      <trkpt lat="49.64463" lon="4.9841">
        <ele>162.12</ele>
        <time>2019-06-21T11:24:47Z</time>
      </trkpt>
      <trkpt lat="49.64445" lon="4.98399">
        <ele>161.64</ele>
        <time>2019-06-21T11:25:05Z</time>
      </trkpt>
      <trkpt lat="49.64427" lon="4.98387">
        <ele>159.72</ele>
        <time>2019-06-21T11:25:19Z</time>
      </trkpt>
      <trkpt lat="49.64419" lon="4.98383">
        <ele>160.2</ele>
        <time>2019-06-21T11:25:27Z</time>
      </trkpt>
      <trkpt lat="49.64399" lon="4.9837">
        <ele>160.68</ele>
        <time>2019-06-21T11:25:46Z</time>
      </trkpt>
      <trkpt lat="49.64384" lon="4.98358">
        <ele>161.16</ele>
        <time>2019-06-21T11:26:02Z</time>
      </trkpt>
      <trkpt lat="49.64368" lon="4.98348">
        <ele>160.68</ele>
        <time>2019-06-21T11:26:17Z</time>
      </trkpt>
      <trkpt lat="49.64346" lon="4.9833">
        <ele>164.04</ele>
        <time>2019-06-21T11:26:38Z</time>
      </trkpt>
      <trkpt lat="49.64332" lon="4.98319">
        <ele>164.04</ele>
        <time>2019-06-21T11:26:54Z</time>
      </trkpt>
      <trkpt lat="49.64316" lon="4.98305">
        <ele>163.56</ele>
        <time>2019-06-21T11:27:12Z</time>
      </trkpt>
      <trkpt lat="49.64301" lon="4.9829">
        <ele>163.56</ele>
        <time>2019-06-21T11:27:26Z</time>
      </trkpt>
      <trkpt lat="49.6428" lon="4.98275">
        <ele>164.52</ele>
        <time>2019-06-21T11:27:45Z</time>
      </trkpt>
      <trkpt lat="49.64262" lon="4.9826">
        <ele>163.56</ele>
        <time>2019-06-21T11:28:03Z</time>
      </trkpt>
      <trkpt lat="49.64242" lon="4.9824">
        <ele>163.08</ele>
        <time>2019-06-21T11:28:24Z</time>
      </trkpt>
      <trkpt lat="49.64225" lon="4.98226">
        <ele>162.12</ele>
        <time>2019-06-21T11:28:41Z</time>
      </trkpt>
      <trkpt lat="49.64206" lon="4.98209">
        <ele>160.68</ele>
        <time>2019-06-21T11:29:01Z</time>
      </trkpt>
      <trkpt lat="49.64193" lon="4.98192">
        <ele>161.16</ele>
        <time>2019-06-21T11:29:17Z</time>
      </trkpt>
      <trkpt lat="49.64182" lon="4.98184">
        <ele>162.6</ele>
        <time>2019-06-21T11:29:31Z</time>
      </trkpt>
      <trkpt lat="49.64164" lon="4.98171">
        <ele>163.56</ele>
        <time>2019-06-21T11:29:45Z</time>
      </trkpt>
      <trkpt lat="49.64148" lon="4.98159">
        <ele>161.64</ele>
        <time>2019-06-21T11:30:00Z</time>
      </trkpt>
      <trkpt lat="49.64131" lon="4.98138">
        <ele>162.12</ele>
        <time>2019-06-21T11:30:21Z</time>
      </trkpt>
      <trkpt lat="49.64115" lon="4.98122">
        <ele>162.6</ele>
        <time>2019-06-21T11:30:40Z</time>
      </trkpt>
      <trkpt lat="49.64094" lon="4.98106">
        <ele>163.56</ele>
        <time>2019-06-21T11:31:01Z</time>
      </trkpt>
      <trkpt lat="49.64076" lon="4.98086">
        <ele>163.56</ele>
        <time>2019-06-21T11:31:20Z</time>
      </trkpt>
      <trkpt lat="49.64059" lon="4.98071">
        <ele>162.12</ele>
        <time>2019-06-21T11:31:39Z</time>
      </trkpt>
      <trkpt lat="49.64041" lon="4.98053">
        <ele>161.16</ele>
        <time>2019-06-21T11:31:57Z</time>
      </trkpt>
      <trkpt lat="49.64029" lon="4.98039">
        <ele>161.64</ele>
        <time>2019-06-21T11:32:13Z</time>
      </trkpt>
      <trkpt lat="49.64013" lon="4.98022">
        <ele>161.16</ele>
        <time>2019-06-21T11:32:32Z</time>
      </trkpt>
      <trkpt lat="49.63994" lon="4.98004">
        <ele>163.08</ele>
        <time>2019-06-21T11:32:52Z</time>
      </trkpt>
      <trkpt lat="49.63976" lon="4.97991">
        <ele>161.16</ele>
        <time>2019-06-21T11:33:12Z</time>
      </trkpt>
      <trkpt lat="49.63961" lon="4.97977">
        <ele>158.27</ele>
        <time>2019-06-21T11:33:28Z</time>
      </trkpt>
      <trkpt lat="49.6394" lon="4.97955">
        <ele>157.31</ele>
        <time>2019-06-21T11:33:47Z</time>
      </trkpt>
      <trkpt lat="49.63923" lon="4.97939">
        <ele>162.12</ele>
        <time>2019-06-21T11:34:08Z</time>
      </trkpt>
      <trkpt lat="49.639" lon="4.97917">
        <ele>159.72</ele>
        <time>2019-06-21T11:34:27Z</time>
      </trkpt>
      <trkpt lat="49.63885" lon="4.97902">
        <ele>157.31</ele>
        <time>2019-06-21T11:34:42Z</time>
      </trkpt>
      <trkpt lat="49.63869" lon="4.97888">
        <ele>159.24</ele>
        <time>2019-06-21T11:35:00Z</time>
      </trkpt>
      <trkpt lat="49.63855" lon="4.97876">
        <ele>163.56</ele>
        <time>2019-06-21T11:35:17Z</time>
      </trkpt>
      <trkpt lat="49.63835" lon="4.97861">
        <ele>166.93</ele>
        <time>2019-06-21T11:35:35Z</time>
      </trkpt>
      <trkpt lat="49.63821" lon="4.97845">
        <ele>167.89</ele>
        <time>2019-06-21T11:35:52Z</time>
      </trkpt>
      <trkpt lat="49.63803" lon="4.97825">
        <ele>170.77</ele>
        <time>2019-06-21T11:36:11Z</time>
      </trkpt>
      <trkpt lat="49.63783" lon="4.97807">
        <ele>170.77</ele>
        <time>2019-06-21T11:36:29Z</time>
      </trkpt>
      <trkpt lat="49.63777" lon="4.978">
        <ele>168.85</ele>
        <time>2019-06-21T11:36:35Z</time>
      </trkpt>
      <trkpt lat="49.63761" lon="4.9778">
        <ele>165.48</ele>
        <time>2019-06-21T11:36:53Z</time>
      </trkpt>
      <trkpt lat="49.63756" lon="4.97775">
        <ele>165.96</ele>
        <time>2019-06-21T11:37:10Z</time>
      </trkpt>
      <trkpt lat="49.63755" lon="4.97774">
        <ele>165</ele>
        <time>2019-06-21T11:37:33Z</time>
      </trkpt>
      <trkpt lat="49.63754" lon="4.97775">
        <ele>165</ele>
        <time>2019-06-21T11:37:59Z</time>
      </trkpt>
      <trkpt lat="49.63754" lon="4.97777">
        <ele>163.56</ele>
        <time>2019-06-21T11:38:26Z</time>
      </trkpt>
      <trkpt lat="49.63754" lon="4.97778">
        <ele>163.56</ele>
        <time>2019-06-21T11:38:49Z</time>
      </trkpt>
      <trkpt lat="49.63753" lon="4.97778">
        <ele>164.04</ele>
        <time>2019-06-21T11:39:09Z</time>
      </trkpt>
      <trkpt lat="49.63733" lon="4.97763">
        <ele>166.45</ele>
        <time>2019-06-21T11:39:27Z</time>
      </trkpt>
      <trkpt lat="49.63714" lon="4.97747">
        <ele>166.45</ele>
        <time>2019-06-21T11:39:44Z</time>
      </trkpt>
      <trkpt lat="49.63697" lon="4.97732">
        <ele>163.56</ele>
        <time>2019-06-21T11:40:01Z</time>
      </trkpt>
      <trkpt lat="49.63689" lon="4.97727">
        <ele>163.08</ele>
        <time>2019-06-21T11:40:08Z</time>
      </trkpt>
      <trkpt lat="49.63677" lon="4.97718">
        <ele>161.16</ele>
        <time>2019-06-21T11:40:20Z</time>
      </trkpt>
      <trkpt lat="49.63665" lon="4.9771">
        <ele>159.24</ele>
        <time>2019-06-21T11:40:33Z</time>
      </trkpt>
      <trkpt lat="49.6365" lon="4.97697">
        <ele>156.83</ele>
        <time>2019-06-21T11:40:50Z</time>
      </trkpt>
      <trkpt lat="49.63632" lon="4.97681">
        <ele>159.24</ele>
        <time>2019-06-21T11:41:09Z</time>
      </trkpt>
      <trkpt lat="49.63627" lon="4.97678">
        <ele>159.72</ele>
        <time>2019-06-21T11:41:14Z</time>
      </trkpt>
      <trkpt lat="49.63611" lon="4.97663">
        <ele>160.68</ele>
        <time>2019-06-21T11:41:31Z</time>
      </trkpt>
      <trkpt lat="49.63605" lon="4.97665">
        <ele>160.68</ele>
        <time>2019-06-21T11:41:37Z</time>
      </trkpt>
      <trkpt lat="49.63586" lon="4.97678">
        <ele>160.68</ele>
        <time>2019-06-21T11:41:56Z</time>
      </trkpt>
      <trkpt lat="49.63568" lon="4.97696">
        <ele>164.04</ele>
        <time>2019-06-21T11:42:17Z</time>
      </trkpt>
      <trkpt lat="49.63548" lon="4.97721">
        <ele>172.21</ele>
        <time>2019-06-21T11:42:40Z</time>
      </trkpt>
      <trkpt lat="49.63538" lon="4.97747">
        <ele>173.17</ele>
        <time>2019-06-21T11:42:56Z</time>
      </trkpt>
      <trkpt lat="49.63528" lon="4.97776">
        <ele>172.69</ele>
        <time>2019-06-21T11:43:15Z</time>
      </trkpt>
      <trkpt lat="49.63526" lon="4.97778">
        <ele>172.21</ele>
        <time>2019-06-21T11:43:17Z</time>
      </trkpt>
      <trkpt lat="49.63508" lon="4.97799">
        <ele>171.25</ele>
        <time>2019-06-21T11:43:37Z</time>
      </trkpt>
      <trkpt lat="49.63493" lon="4.9782">
        <ele>172.69</ele>
        <time>2019-06-21T11:43:57Z</time>
      </trkpt>
      <trkpt lat="49.63478" lon="4.9784">
        <ele>172.69</ele>
        <time>2019-06-21T11:44:14Z</time>
      </trkpt>
      <trkpt lat="49.63466" lon="4.97857">
        <ele>174.14</ele>
        <time>2019-06-21T11:44:30Z</time>
      </trkpt>
      <trkpt lat="49.63451" lon="4.97877">
        <ele>177.98</ele>
        <time>2019-06-21T11:44:49Z</time>
      </trkpt>
      <trkpt lat="49.63436" lon="4.97893">
        <ele>179.42</ele>
        <time>2019-06-21T11:45:07Z</time>
      </trkpt>
      <trkpt lat="49.63419" lon="4.97901">
        <ele>181.83</ele>
        <time>2019-06-21T11:45:26Z</time>
      </trkpt>
      <trkpt lat="49.634" lon="4.97919">
        <ele>181.83</ele>
        <time>2019-06-21T11:45:46Z</time>
      </trkpt>
      <trkpt lat="49.63383" lon="4.97934">
        <ele>183.75</ele>
        <time>2019-06-21T11:46:05Z</time>
      </trkpt>
      <trkpt lat="49.63385" lon="4.97946">
        <ele>184.71</ele>
        <time>2019-06-21T11:46:14Z</time>
      </trkpt>
      <trkpt lat="49.63392" lon="4.97971">
        <ele>185.67</ele>
        <time>2019-06-21T11:46:30Z</time>
      </trkpt>
      <trkpt lat="49.63399" lon="4.97989">
        <ele>185.67</ele>
        <time>2019-06-21T11:46:44Z</time>
      </trkpt>
      <trkpt lat="49.63405" lon="4.98004">
        <ele>185.19</ele>
        <time>2019-06-21T11:46:54Z</time>
      </trkpt>
      <trkpt lat="49.63421" lon="4.98022">
        <ele>182.31</ele>
        <time>2019-06-21T11:47:11Z</time>
      </trkpt>
      <trkpt lat="49.63433" lon="4.9804">
        <ele>179.9</ele>
        <time>2019-06-21T11:47:27Z</time>
      </trkpt>
      <trkpt lat="49.63444" lon="4.98049">
        <ele>181.35</ele>
        <time>2019-06-21T11:47:44Z</time>
      </trkpt>
      <trkpt lat="49.63445" lon="4.98047">
        <ele>182.79</ele>
        <time>2019-06-21T11:47:53Z</time>
      </trkpt>
    </trkseg>
  </trk>
</gpx>